Observation data for Fort McKavett on 05/16/2018      Previous  Date  Next       Current Mesonet Observations  Soil Data  Daily Summary Page  Observations in Plain Language
KMC1 160500Z 12002KT 18/16 A3002 RMK A01 T01800164  RH  090%=      5-min Rain = 0
KMC1 160501Z 10002KT 18/16 A3002 RMK A01 T01800164  RH  090%=      5-min Rain = 0
KMC1 160502Z 09002KT 18/17 A3002 RMK A01 T01800165  RH  091%=      5-min Rain = 0.01
KMC1 160503Z 08002KT 18/17 A3002 RMK A01 T01800165  RH  091%=      5-min Rain = 0
KMC1 160504Z 06003KT 18/17 A3002 RMK A01 T01800165  RH  091%=      5-min Rain = 0
KMC1 160505Z 06003KT 18/17 A3002 RMK A01 T01800165  RH  091%=      5-min Rain = 0
KMC1 160506Z 06002KT 18/17 A3002 RMK A01 T01790165  RH  092%=      5-min Rain = 0
KMC1 160507Z 06003KT 18/17 A3002 RMK A01 T01790166  RH  092%=      5-min Rain = 0
KMC1 160508Z 08005KT 18/17 A3002 RMK A01 T01790166  RH  092%=      5-min Rain = 0
KMC1 160509Z 08004KT 18/17 A3002 RMK A01 T01790165  RH  092%=      5-min Rain = 0
KMC1 160510Z 10005KT 18/17 A3002 RMK A01 T01790165  RH  091%=      5-min Rain = 0
KMC1 160511Z 11005KT 18/16 A3002 RMK A01 T01790164  RH  091%=      5-min Rain = 0
KMC1 160512Z 11006KT 18/16 A3002 RMK A01 T01800164  RH  091%=      5-min Rain = 0
KMC1 160513Z 11007KT 18/16 A3002 RMK A01 T01800164  RH  090%=      5-min Rain = 0
KMC1 160514Z 12008KT 18/16 A3002 RMK A01 T01810162  RH  088%=      5-min Rain = 0
KMC1 160515Z 12008KT 18/16 A3002 RMK A01 T01830160  RH  087%=      5-min Rain = 0
KMC1 160516Z 12008KT 18/16 A3002 RMK A01 T01840160  RH  086%=      5-min Rain = 0
KMC1 160517Z 11008KT 19/16 A3002 RMK A01 T01850159  RH  085%=      5-min Rain = 0
KMC1 160518Z 12008KT 19/16 A3002 RMK A01 T01860159  RH  085%=      5-min Rain = 0
KMC1 160519Z 12007KT 19/16 A3002 RMK A01 T01860158  RH  084%=      5-min Rain = 0
KMC1 160520Z 11007KT 19/16 A3002 RMK A01 T01870159  RH  084%=      5-min Rain = 0
KMC1 160521Z 11008KT 19/16 A3002 RMK A01 T01870160  RH  084%=      5-min Rain = 0
KMC1 160522Z 10007KT 19/16 A3002 RMK A01 T01870160  RH  084%=      5-min Rain = 0
KMC1 160523Z 10007KT 19/16 A3002 RMK A01 T01870159  RH  084%=      5-min Rain = 0
KMC1 160524Z 10006KT 19/16 A3002 RMK A01 T01870159  RH  084%=      5-min Rain = 0
KMC1 160525Z 10006KT 19/16 A3002 RMK A01 T01870161  RH  085%=      5-min Rain = 0
KMC1 160526Z 09006KT 19/16 A3001 RMK A01 T01860160  RH  085%=      5-min Rain = 0
KMC1 160527Z 10005KT 19/16 A3001 RMK A01 T01860161  RH  085%=      5-min Rain = 0
KMC1 160528Z 09005KT 19/16 A3001 RMK A01 T01850161  RH  086%=      5-min Rain = 0
KMC1 160529Z 10006KT 19/16 A3001 RMK A01 T01850161  RH  086%=      5-min Rain = 0
KMC1 160530Z 09005KT 19/16 A3001 RMK A01 T01850159  RH  085%=      5-min Rain = 0
KMC1 160531Z 09005KT 18/16 A3001 RMK A01 T01840160  RH  086%=      5-min Rain = 0
KMC1 160532Z 08005KT 19/16 A3001 RMK A01 T01850161  RH  086%=      5-min Rain = 0
KMC1 160533Z 08006KT 19/16 A3001 RMK A01 T01850161  RH  086%=      5-min Rain = 0
KMC1 160534Z 07006KT 18/16 A3001 RMK A01 T01840160  RH  086%=      5-min Rain = 0
KMC1 160535Z 06006KT 18/16 A3002 RMK A01 T01840160  RH  086%=      5-min Rain = 0
KMC1 160536Z 06005KT 18/16 A3002 RMK A01 T01840161  RH  086%=      5-min Rain = 0
KMC1 160537Z 05006KT 18/16 A3002 RMK A01 T01840160  RH  086%=      5-min Rain = 0
KMC1 160538Z 05006KT 18/16 A3002 RMK A01 T01840160  RH  086%=      5-min Rain = 0
KMC1 160539Z 05006KT 18/16 A3002 RMK A01 T01840161  RH  087%=      5-min Rain = 0
KMC1 160540Z 05006KT 18/16 A3002 RMK A01 T01840162  RH  087%=      5-min Rain = 0
KMC1 160541Z 05004KT 18/16 A3002 RMK A01 T01830161  RH  087%=      5-min Rain = 0
KMC1 160542Z 07004KT 18/16 A3002 RMK A01 T01830161  RH  087%=      5-min Rain = 0
KMC1 160543Z 07003KT 18/16 A3002 RMK A01 T01830162  RH  087%=      5-min Rain = 0
KMC1 160544Z 07006KT 18/16 A3002 RMK A01 T01830162  RH  087%=      5-min Rain = 0
KMC1 160545Z 08004KT 18/16 A3002 RMK A01 T01830161  RH  087%=      5-min Rain = 0
KMC1 160546Z 10003KT 18/16 A3002 RMK A01 T01830161  RH  087%=      5-min Rain = 0
KMC1 160547Z 10003KT 18/16 A3002 RMK A01 T01830162  RH  087%=      5-min Rain = 0
KMC1 160548Z 10003KT 18/16 A3002 RMK A01 T01830162  RH  088%=      5-min Rain = 0
KMC1 160549Z 10003KT 18/16 A3002 RMK A01 T01820161  RH  088%=      5-min Rain = 0
KMC1 160550Z 11003KT 18/16 A3002 RMK A01 T01820161  RH  087%=      5-min Rain = 0
KMC1 160551Z 11003KT 18/16 A3002 RMK A01 T01820161  RH  087%=      5-min Rain = 0
KMC1 160552Z 13002KT 18/16 A3002 RMK A01 T01820160  RH  087%=      5-min Rain = 0
KMC1 160553Z 13002KT 18/16 A3002 RMK A01 T01820160  RH  087%=      5-min Rain = 0
KMC1 160554Z 14003KT 18/16 A3002 RMK A01 T01820160  RH  087%=      5-min Rain = 0
KMC1 160555Z 13003KT 18/16 A3002 RMK A01 T01820159  RH  086%=      5-min Rain = 0
KMC1 160556Z 12004KT 18/16 A3002 RMK A01 T01820159  RH  086%=      5-min Rain = 0
KMC1 160557Z 12004KT 18/16 A3001 RMK A01 T01820159  RH  086%=      5-min Rain = 0
KMC1 160558Z 13003KT 18/16 A3001 RMK A01 T01830159  RH  086%=      5-min Rain = 0
KMC1 160559Z 12004KT 18/16 A3001 RMK A01 T01830158  RH  085%=      5-min Rain = 0
KMC1 160600Z 13004KT 18/16 A3001 RMK A01 T01840158  RH  085%=      5-min Rain = 0
KMC1 160601Z 12006KT 18/16 A3001 RMK A01 T01840157  RH  084%=      5-min Rain = 0
KMC1 160602Z 13004KT 19/16 A3001 RMK A01 T01850158  RH  084%=      5-min Rain = 0
KMC1 160603Z 13004KT 19/16 A3001 RMK A01 T01850158  RH  084%=      5-min Rain = 0
KMC1 160604Z 14003KT 19/16 A3001 RMK A01 T01850158  RH  084%=      5-min Rain = 0
KMC1 160605Z 13004KT 19/16 A3001 RMK A01 T01850159  RH  084%=      5-min Rain = 0
KMC1 160606Z 12004KT 19/16 A3001 RMK A01 T01850158  RH  084%=      5-min Rain = 0
KMC1 160607Z 13004KT 19/16 A3001 RMK A01 T01850157  RH  084%=      5-min Rain = 0
KMC1 160608Z 13003KT 19/16 A3001 RMK A01 T01850157  RH  084%=      5-min Rain = 0
KMC1 160609Z 12004KT 19/16 A3001 RMK A01 T01850158  RH  084%=      5-min Rain = 0
KMC1 160610Z 10003KT 19/16 A3001 RMK A01 T01850157  RH  084%=      5-min Rain = 0
KMC1 160611Z 08002KT 19/16 A3001 RMK A01 T01850158  RH  084%=      5-min Rain = 0
KMC1 160612Z 07003KT 19/16 A3001 RMK A01 T01850158  RH  084%=      5-min Rain = 0
KMC1 160613Z 05003KT 19/16 A3001 RMK A01 T01850158  RH  084%=      5-min Rain = 0
KMC1 160614Z 05003KT 19/16 A3001 RMK A01 T01850158  RH  085%=      5-min Rain = 0
KMC1 160615Z 05002KT 18/16 A3001 RMK A01 T01840159  RH  085%=      5-min Rain = 0
KMC1 160616Z 04002KT 18/16 A3001 RMK A01 T01840158  RH  085%=      5-min Rain = 0
KMC1 160617Z 04003KT 18/16 A3001 RMK A01 T01830158  RH  085%=      5-min Rain = 0
KMC1 160618Z 04003KT 18/16 A3001 RMK A01 T01830158  RH  086%=      5-min Rain = 0
KMC1 160619Z 04004KT 18/16 A3001 RMK A01 T01820158  RH  086%=      5-min Rain = 0
KMC1 160620Z 05003KT 18/16 A3001 RMK A01 T01820158  RH  086%=      5-min Rain = 0
KMC1 160621Z 07003KT 18/16 A3001 RMK A01 T01820158  RH  086%=      5-min Rain = 0
KMC1 160622Z 10003KT 18/16 A3001 RMK A01 T01820159  RH  086%=      5-min Rain = 0
KMC1 160623Z 11004KT 18/16 A3001 RMK A01 T01820159  RH  087%=      5-min Rain = 0
KMC1 160624Z 13004KT 18/16 A3001 RMK A01 T01810158  RH  086%=      5-min Rain = 0
KMC1 160625Z 13004KT 18/16 A30 RMK A01 T01810158  RH  087%=      5-min Rain = 0
KMC1 160626Z 14005KT 18/16 A30 RMK A01 T01810158  RH  087%=      5-min Rain = 0
KMC1 160627Z 15004KT 18/16 A30 RMK A01 T01810157  RH  086%=      5-min Rain = 0
KMC1 160628Z 15004KT 18/16 A3001 RMK A01 T01820158  RH  086%=      5-min Rain = 0
KMC1 160629Z 14004KT 18/16 A3001 RMK A01 T01830157  RH  085%=      5-min Rain = 0
KMC1 160630Z 14005KT 18/16 A3001 RMK A01 T01840158  RH  085%=      5-min Rain = 0
KMC1 160631Z 15003KT 19/16 A3001 RMK A01 T01850158  RH  084%=      5-min Rain = 0
KMC1 160632Z 14004KT 19/16 A3001 RMK A01 T01850158  RH  084%=      5-min Rain = 0
KMC1 160633Z 14003KT 19/16 A3001 RMK A01 T01850158  RH  084%=      5-min Rain = 0
KMC1 160634Z 15003KT 19/16 A30 RMK A01 T01850158  RH  084%=      5-min Rain = 0
KMC1 160635Z 15004KT 19/16 A30 RMK A01 T01850159  RH  085%=      5-min Rain = 0
KMC1 160636Z 14007KT 19/16 A30 RMK A01 T01850158  RH  085%=      5-min Rain = 0
KMC1 160637Z 16003KT 19/16 A30 RMK A01 T01850159  RH  085%=      5-min Rain = 0
KMC1 160638Z 16004KT 19/16 A30 RMK A01 T01850160  RH  085%=      5-min Rain = 0
KMC1 160639Z 15004KT 19/16 A30 RMK A01 T01860160  RH  085%=      5-min Rain = 0
KMC1 160640Z 15005KT 19/16 A30 RMK A01 T01860160  RH  085%=      5-min Rain = 0
KMC1 160641Z 16006KT 19/16 A30 RMK A01 T01850160  RH  085%=      5-min Rain = 0
KMC1 160642Z 16005KT 19/16 A2999 RMK A01 T01850161  RH  086%=      5-min Rain = 0
KMC1 160643Z 16006KT 19/16 A2999 RMK A01 T01850161  RH  086%=      5-min Rain = 0
KMC1 160644Z 15005KT 19/16 A2999 RMK A01 T01850161  RH  086%=      5-min Rain = 0
KMC1 160645Z 16005KT 19/16 A2999 RMK A01 T01850161  RH  086%=      5-min Rain = 0
KMC1 160646Z 16006KT 19/16 A2999 RMK A01 T01850162  RH  086%=      5-min Rain = 0
KMC1 160647Z 16007KT 19/16 A2998 RMK A01 T01850161  RH  086%=      5-min Rain = 0
KMC1 160648Z 16008KT 19/16 A2998 RMK A01 T01850162  RH  086%=      5-min Rain = 0
KMC1 160649Z 16006KT 19/16 A2998 RMK A01 T01860162  RH  086%=      5-min Rain = 0
KMC1 160650Z 17008KT 19/16 A2998 RMK A01 T01860162  RH  086%=      5-min Rain = 0
KMC1 160651Z 17008KT 19/16 A2998 RMK A01 T01860162  RH  086%=      5-min Rain = 0
KMC1 160652Z 16009KT 19/16 A2998 RMK A01 T01860162  RH  086%=      5-min Rain = 0
KMC1 160653Z 16008KT 19/16 A2998 RMK A01 T01860163  RH  086%=      5-min Rain = 0
KMC1 160654Z 17009KT 19/16 A2998 RMK A01 T01850163  RH  087%=      5-min Rain = 0
KMC1 160655Z 16007KT 19/16 A2998 RMK A01 T01860163  RH  087%=      5-min Rain = 0
KMC1 160656Z 16007KT 19/16 A2998 RMK A01 T01850163  RH  087%=      5-min Rain = 0
KMC1 160657Z 17007KT 18/16 A2997 RMK A01 T01840163  RH  087%=      5-min Rain = 0
KMC1 160658Z 16006KT 18/16 A2997 RMK A01 T01840163  RH  088%=      5-min Rain = 0
KMC1 160659Z 16007KT 18/16 A2997 RMK A01 T01840163  RH  088%=      5-min Rain = 0
KMC1 160700Z 16006KT 18/16 A2997 RMK A01 T01830164  RH  088%=      5-min Rain = 0
KMC1 160701Z 15006KT 18/16 A2997 RMK A01 T01830163  RH  088%=      5-min Rain = 0
KMC1 160702Z 15007KT 18/16 A2997 RMK A01 T01830163  RH  088%=      5-min Rain = 0
KMC1 160703Z 16007KT 18/16 A2997 RMK A01 T01830163  RH  088%=      5-min Rain = 0
KMC1 160704Z 16007KT 18/16 A2997 RMK A01 T01830162  RH  088%=      5-min Rain = 0
KMC1 160705Z 16007KT 18/16 A2997 RMK A01 T01830163  RH  088%=      5-min Rain = 0
KMC1 160706Z 15007KT 18/16 A2997 RMK A01 T01830162  RH  087%=      5-min Rain = 0
KMC1 160707Z 15006KT 18/16 A2997 RMK A01 T01840162  RH  087%=      5-min Rain = 0
KMC1 160708Z 16007KT 18/16 A2997 RMK A01 T01840162  RH  087%=      5-min Rain = 0
KMC1 160709Z 16006KT 18/16 A2997 RMK A01 T01840161  RH  086%=      5-min Rain = 0
KMC1 160710Z 17006KT 19/16 A2997 RMK A01 T01850162  RH  086%=      5-min Rain = 0
KMC1 160711Z 16005KT 19/16 A2997 RMK A01 T01850161  RH  086%=      5-min Rain = 0
KMC1 160712Z 16004KT 19/16 A2997 RMK A01 T01850161  RH  086%=      5-min Rain = 0
KMC1 160713Z 15004KT 19/16 A2997 RMK A01 T01850161  RH  086%=      5-min Rain = 0
KMC1 160714Z 16005KT 19/16 A2997 RMK A01 T01850161  RH  086%=      5-min Rain = 0
KMC1 160715Z 16005KT 18/16 A2997 RMK A01 T01840161  RH  086%=      5-min Rain = 0
KMC1 160716Z 17005KT 18/16 A2997 RMK A01 T01840161  RH  086%=      5-min Rain = 0
KMC1 160717Z 17007KT 18/16 A2997 RMK A01 T01840161  RH  086%=      5-min Rain = 0
KMC1 160718Z 16006KT 18/16 A2997 RMK A01 T01840160  RH  086%=      5-min Rain = 0
KMC1 160719Z 16005KT 19/16 A2997 RMK A01 T01850159  RH  085%=      5-min Rain = 0
KMC1 160720Z 16005KT 19/16 A2997 RMK A01 T01850159  RH  085%=      5-min Rain = 0
KMC1 160721Z 15005KT 19/16 A2996 RMK A01 T01850159  RH  085%=      5-min Rain = 0
KMC1 160722Z 16003KT 19/16 A2996 RMK A01 T01850158  RH  085%=      5-min Rain = 0
KMC1 160723Z 16002KT 19/16 A2996 RMK A01 T01850158  RH  084%=      5-min Rain = 0
KMC1 160724Z 15004KT 19/16 A2996 RMK A01 T01850158  RH  084%=      5-min Rain = 0
KMC1 160725Z 16002KT 19/16 A2997 RMK A01 T01850157  RH  084%=      5-min Rain = 0
KMC1 160726Z 17002KT 19/16 A2997 RMK A01 T01850157  RH  083%=      5-min Rain = 0
KMC1 160727Z 17002KT 19/16 A2996 RMK A01 T01860157  RH  083%=      5-min Rain = 0
KMC1 160728Z 17001KT 19/16 A2996 RMK A01 T01860157  RH  083%=      5-min Rain = 0
KMC1 160729Z 19002KT 19/16 A2996 RMK A01 T01860158  RH  083%=      5-min Rain = 0
KMC1 160730Z 18002KT 19/16 A2996 RMK A01 T01860158  RH  084%=      5-min Rain = 0
KMC1 160731Z 19004KT 19/16 A2996 RMK A01 T01860157  RH  083%=      5-min Rain = 0
KMC1 160732Z 18004KT 19/16 A2996 RMK A01 T01860157  RH  084%=      5-min Rain = 0
KMC1 160733Z 18004KT 19/16 A2996 RMK A01 T01850157  RH  084%=      5-min Rain = 0
KMC1 160734Z 17004KT 19/16 A2995 RMK A01 T01850157  RH  084%=      5-min Rain = 0
KMC1 160735Z 17005KT 19/16 A2995 RMK A01 T01850157  RH  084%=      5-min Rain = 0
KMC1 160736Z 17006KT 19/16 A2995 RMK A01 T01850157  RH  084%=      5-min Rain = 0
KMC1 160737Z 17007KT 19/16 A2995 RMK A01 T01850157  RH  084%=      5-min Rain = 0
KMC1 160738Z 18007KT 19/16 A2995 RMK A01 T01850156  RH  083%=      5-min Rain = 0
KMC1 160739Z 17007KT 19/16 A2995 RMK A01 T01850156  RH  083%=      5-min Rain = 0
KMC1 160740Z 18007KT 19/16 A2995 RMK A01 T01850155  RH  083%=      5-min Rain = 0
KMC1 160741Z 18006KT 19/16 A2995 RMK A01 T01860156  RH  082%=      5-min Rain = 0
KMC1 160742Z 18007KT 19/16 A2995 RMK A01 T01860156  RH  082%=      5-min Rain = 0
KMC1 160743Z 17005KT 19/16 A2995 RMK A01 T01860156  RH  082%=      5-min Rain = 0
KMC1 160744Z 17005KT 19/16 A2995 RMK A01 T01860156  RH  083%=      5-min Rain = 0
KMC1 160745Z 16005KT 19/16 A2995 RMK A01 T01860155  RH  083%=      5-min Rain = 0
KMC1 160746Z 16004KT 19/16 A2995 RMK A01 T01850155  RH  082%=      5-min Rain = 0
KMC1 160747Z 13003KT 19/15 A2995 RMK A01 T01860154  RH  082%=      5-min Rain = 0
KMC1 160748Z 12004KT 19/15 A2995 RMK A01 T01860154  RH  082%=      5-min Rain = 0
KMC1 160749Z 10003KT 19/15 A2995 RMK A01 T01860154  RH  082%=      5-min Rain = 0
KMC1 160750Z 08003KT 19/15 A2995 RMK A01 T01860154  RH  082%=      5-min Rain = 0
KMC1 160751Z 07003KT 19/15 A2995 RMK A01 T01860154  RH  082%=      5-min Rain = 0
KMC1 160752Z 06004KT 19/15 A2995 RMK A01 T01850154  RH  082%=      5-min Rain = 0
KMC1 160753Z 04004KT 19/15 A2995 RMK A01 T01850153  RH  082%=      5-min Rain = 0
KMC1 160754Z 04004KT 19/15 A2995 RMK A01 T01850154  RH  082%=      5-min Rain = 0
KMC1 160755Z 04005KT 18/16 A2995 RMK A01 T01840155  RH  083%=      5-min Rain = 0
KMC1 160756Z 04004KT 18/16 A2995 RMK A01 T01830156  RH  084%=      5-min Rain = 0
KMC1 160757Z 04005KT 18/16 A2995 RMK A01 T01820157  RH  086%=      5-min Rain = 0
KMC1 160758Z 04005KT 18/16 A2995 RMK A01 T01810158  RH  087%=      5-min Rain = 0
KMC1 160759Z 04006KT 18/16 A2995 RMK A01 T01800158  RH  087%=      5-min Rain = 0
KMC1 160800Z 03006KT 18/16 A2995 RMK A01 T01790158  RH  088%=      5-min Rain = 0
KMC1 160801Z 04005KT 18/16 A2995 RMK A01 T01790159  RH  088%=      5-min Rain = 0
KMC1 160802Z 04006KT 18/16 A2995 RMK A01 T01780159  RH  088%=      5-min Rain = 0
KMC1 160803Z 04005KT 18/16 A2995 RMK A01 T01780159  RH  088%=      5-min Rain = 0
KMC1 160804Z 04005KT 18/16 A2995 RMK A01 T01780159  RH  089%=      5-min Rain = 0
KMC1 160805Z 05004KT 18/16 A2995 RMK A01 T01780158  RH  088%=      5-min Rain = 0
KMC1 160806Z 05003KT 18/16 A2995 RMK A01 T01780157  RH  088%=      5-min Rain = 0
KMC1 160807Z 09002KT 18/16 A2995 RMK A01 T01780157  RH  088%=      5-min Rain = 0
KMC1 160808Z 09003KT 18/16 A2995 RMK A01 T01780157  RH  087%=      5-min Rain = 0
KMC1 160809Z 11003KT 18/16 A2995 RMK A01 T01780156  RH  087%=      5-min Rain = 0
KMC1 160810Z 14003KT 18/16 A2995 RMK A01 T01790156  RH  087%=      5-min Rain = 0
KMC1 160811Z 13003KT 18/16 A2995 RMK A01 T01790157  RH  087%=      5-min Rain = 0
KMC1 160812Z 13004KT 18/16 A2995 RMK A01 T01790156  RH  087%=      5-min Rain = 0
KMC1 160813Z 13003KT 18/16 A2995 RMK A01 T01790157  RH  087%=      5-min Rain = 0
KMC1 160814Z 13004KT 18/16 A2995 RMK A01 T01790157  RH  087%=      5-min Rain = 0
KMC1 160815Z 12004KT 18/16 A2995 RMK A01 T01780157  RH  087%=      5-min Rain = 0
KMC1 160816Z 11004KT 18/16 A2995 RMK A01 T01780156  RH  087%=      5-min Rain = 0
KMC1 160817Z 09005KT 18/16 A2995 RMK A01 T01780156  RH  087%=      5-min Rain = 0
KMC1 160818Z 08004KT 18/16 A2995 RMK A01 T01780156  RH  087%=      5-min Rain = 0
KMC1 160819Z 08005KT 18/16 A2995 RMK A01 T01780156  RH  087%=      5-min Rain = 0
KMC1 160820Z 06004KT 18/16 A2995 RMK A01 T01770156  RH  087%=      5-min Rain = 0
KMC1 160821Z 05005KT 18/16 A2995 RMK A01 T01770156  RH  088%=      5-min Rain = 0
KMC1 160822Z 06004KT 18/16 A2995 RMK A01 T01760156  RH  088%=      5-min Rain = 0
KMC1 160823Z 06003KT 18/16 A2995 RMK A01 T01760156  RH  089%=      5-min Rain = 0
KMC1 160824Z 06003KT 18/16 A2995 RMK A01 T01750156  RH  089%=      5-min Rain = 0
KMC1 160825Z 06003KT 18/16 A2995 RMK A01 T01750157  RH  089%=      5-min Rain = 0
KMC1 160826Z 06003KT 17/16 A2995 RMK A01 T01740157  RH  089%=      5-min Rain = 0
KMC1 160827Z 06003KT 17/16 A2995 RMK A01 T01740157  RH  090%=      5-min Rain = 0
KMC1 160828Z 06003KT 17/16 A2995 RMK A01 T01740157  RH  090%=      5-min Rain = 0
KMC1 160829Z 07002KT 17/16 A2995 RMK A01 T01730156  RH  090%=      5-min Rain = 0
KMC1 160830Z 07002KT 17/16 A2995 RMK A01 T01730156  RH  090%=      5-min Rain = 0
KMC1 160831Z 08002KT 17/16 A2995 RMK A01 T01720156  RH  090%=      5-min Rain = 0
KMC1 160832Z 08002KT 17/16 A2995 RMK A01 T01720156  RH  091%=      5-min Rain = 0
KMC1 160833Z 09002KT 17/16 A2995 RMK A01 T01720156  RH  091%=      5-min Rain = 0
KMC1 160834Z 09002KT 17/16 A2995 RMK A01 T01710156  RH  091%=      5-min Rain = 0
KMC1 160835Z 09001KT 17/16 A2995 RMK A01 T01710156  RH  091%=      5-min Rain = 0
KMC1 160836Z 09002KT 17/16 A2995 RMK A01 T01710156  RH  091%=      5-min Rain = 0
KMC1 160837Z 09003KT 17/16 A2995 RMK A01 T01700156  RH  091%=      5-min Rain = 0
KMC1 160838Z 09003KT 17/16 A2995 RMK A01 T01710157  RH  092%=      5-min Rain = 0
KMC1 160839Z 10003KT 17/16 A2995 RMK A01 T01700157  RH  092%=      5-min Rain = 0
KMC1 160840Z 11002KT 17/16 A2995 RMK A01 T01700156  RH  092%=      5-min Rain = 0
KMC1 160841Z 11003KT 17/16 A2995 RMK A01 T01700156  RH  092%=      5-min Rain = 0
KMC1 160842Z 12002KT 17/16 A2995 RMK A01 T01700156  RH  092%=      5-min Rain = 0
KMC1 160843Z 14002KT 17/16 A2995 RMK A01 T01700157  RH  092%=      5-min Rain = 0
KMC1 160844Z 15002KT 17/16 A2995 RMK A01 T01690156  RH  092%=      5-min Rain = 0
KMC1 160845Z 14002KT 17/16 A2996 RMK A01 T01690157  RH  092%=      5-min Rain = 0
KMC1 160846Z 14002KT 17/16 A2996 RMK A01 T01690156  RH  092%=      5-min Rain = 0
KMC1 160847Z 16002KT 17/16 A2996 RMK A01 T01690156  RH  092%=      5-min Rain = 0
KMC1 160848Z 15001KT 17/16 A2996 RMK A01 T01690156  RH  092%=      5-min Rain = 0
KMC1 160849Z 13002KT 17/16 A2996 RMK A01 T01690156  RH  092%=      5-min Rain = 0
KMC1 160850Z 15002KT 17/16 A2996 RMK A01 T01680156  RH  093%=      5-min Rain = 0
KMC1 160851Z 17002KT 17/16 A2996 RMK A01 T01680156  RH  093%=      5-min Rain = 0
KMC1 160852Z 18002KT 17/16 A2996 RMK A01 T01680156  RH  093%=      5-min Rain = 0
KMC1 160853Z 19002KT 17/16 A2997 RMK A01 T01680156  RH  093%=      5-min Rain = 0
KMC1 160854Z 20002KT 17/16 A2997 RMK A01 T01680158  RH  093%=      5-min Rain = 0
KMC1 160855Z 20002KT 17/16 A2997 RMK A01 T01690159  RH  094%=      5-min Rain = 0
KMC1 160856Z 21002KT 17/16 A2997 RMK A01 T01690159  RH  094%=      5-min Rain = 0
KMC1 160857Z 23001KT 17/16 A2997 RMK A01 T01690158  RH  093%=      5-min Rain = 0
KMC1 160858Z 00000KT 17/16 A2997 RMK A01 T01700159  RH  093%=      5-min Rain = 0
KMC1 160859Z 00000KT 17/16 A2996 RMK A01 T01700159  RH  093%=      5-min Rain = 0
KMC1 160900Z 34001KT 17/16 A2996 RMK A01 T01700160  RH  094%=      5-min Rain = 0
KMC1 160901Z 00001KT 17/16 A2996 RMK A01 T01700160  RH  094%=      5-min Rain = 0
KMC1 160902Z 01001KT 17/16 A2996 RMK A01 T01700160  RH  094%=      5-min Rain = 0
KMC1 160903Z 00000KT 17/16 A2996 RMK A01 T01700161  RH  094%=      5-min Rain = 0
KMC1 160904Z 00000KT 17/16 A2996 RMK A01 T01710160  RH  094%=      5-min Rain = 0
KMC1 160905Z 28000KT 17/16 A2996 RMK A01 T01710160  RH  093%=      5-min Rain = 0
KMC1 160906Z 00000KT 17/16 A2996 RMK A01 T01710160  RH  093%=      5-min Rain = 0
KMC1 160907Z 00000KT 17/16 A2996 RMK A01 T01710160  RH  093%=      5-min Rain = 0
KMC1 160908Z 00000KT 17/16 A2996 RMK A01 T01710160  RH  093%=      5-min Rain = 0
KMC1 160909Z 22001KT 17/16 A2996 RMK A01 T01710159  RH  093%=      5-min Rain = 0
KMC1 160910Z 21002KT 17/16 A2996 RMK A01 T01710160  RH  093%=      5-min Rain = 0
KMC1 160911Z 22002KT 17/16 A2996 RMK A01 T01710160  RH  093%=      5-min Rain = 0
KMC1 160912Z 21002KT 17/16 A2996 RMK A01 T01720161  RH  093%=      5-min Rain = 0
KMC1 160913Z 20002KT 17/16 A2996 RMK A01 T01720160  RH  093%=      5-min Rain = 0
KMC1 160914Z 21001KT 17/16 A2996 RMK A01 T01720159  RH  092%=      5-min Rain = 0
KMC1 160915Z 22002KT 17/16 A2996 RMK A01 T01720159  RH  092%=      5-min Rain = 0
KMC1 160916Z 23003KT 17/16 A2996 RMK A01 T01720159  RH  092%=      5-min Rain = 0
KMC1 160917Z 24003KT 17/16 A2996 RMK A01 T01720158  RH  091%=      5-min Rain = 0
KMC1 160918Z 25003KT 17/16 A2996 RMK A01 T01730159  RH  091%=      5-min Rain = 0
KMC1 160919Z 26004KT 17/16 A2996 RMK A01 T01740160  RH  092%=      5-min Rain = 0
KMC1 160920Z 26003KT 17/16 A2996 RMK A01 T01740161  RH  092%=      5-min Rain = 0
KMC1 160921Z 27003KT 17/16 A2997 RMK A01 T01740161  RH  092%=      5-min Rain = 0
KMC1 160922Z 27002KT 17/16 A2997 RMK A01 T01740160  RH  092%=      5-min Rain = 0
KMC1 160923Z 27002KT 17/16 A2997 RMK A01 T01740160  RH  091%=      5-min Rain = 0
KMC1 160924Z 27002KT 17/16 A2997 RMK A01 T01740159  RH  091%=      5-min Rain = 0
KMC1 160925Z 27001KT 17/16 A2997 RMK A01 T01740159  RH  091%=      5-min Rain = 0
KMC1 160926Z 26002KT 18/16 A2997 RMK A01 T01750160  RH  091%=      5-min Rain = 0
KMC1 160927Z 25001KT 18/16 A2997 RMK A01 T01750159  RH  091%=      5-min Rain = 0
KMC1 160928Z 23001KT 18/16 A2997 RMK A01 T01750159  RH  090%=      5-min Rain = 0
KMC1 160929Z 22002KT 18/16 A2996 RMK A01 T01750159  RH  090%=      5-min Rain = 0
KMC1 160930Z 22002KT 18/16 A2996 RMK A01 T01750158  RH  090%=      5-min Rain = 0
KMC1 160931Z 22003KT 18/16 A2996 RMK A01 T01750159  RH  090%=      5-min Rain = 0
KMC1 160932Z 23003KT 18/16 A2996 RMK A01 T01760158  RH  089%=      5-min Rain = 0
KMC1 160933Z 24004KT 18/16 A2996 RMK A01 T01760159  RH  090%=      5-min Rain = 0
KMC1 160934Z 24004KT 18/16 A2996 RMK A01 T01760158  RH  089%=      5-min Rain = 0
KMC1 160935Z 24004KT 18/16 A2996 RMK A01 T01760158  RH  089%=      5-min Rain = 0
KMC1 160936Z 23003KT 18/16 A2996 RMK A01 T01760159  RH  090%=      5-min Rain = 0
KMC1 160937Z 24003KT 18/16 A2996 RMK A01 T01750158  RH  090%=      5-min Rain = 0
KMC1 160938Z 24003KT 18/16 A2996 RMK A01 T01750158  RH  090%=      5-min Rain = 0
KMC1 160939Z 25003KT 18/16 A2996 RMK A01 T01750158  RH  090%=      5-min Rain = 0
KMC1 160940Z 25003KT 18/16 A2996 RMK A01 T01750158  RH  090%=      5-min Rain = 0
KMC1 160941Z 24004KT 18/16 A2996 RMK A01 T01750158  RH  090%=      5-min Rain = 0
KMC1 160942Z 24004KT 18/16 A2996 RMK A01 T01750159  RH  090%=      5-min Rain = 0
KMC1 160943Z 24004KT 17/16 A2996 RMK A01 T01740158  RH  090%=      5-min Rain = 0
KMC1 160944Z 24004KT 17/16 A2996 RMK A01 T01740159  RH  091%=      5-min Rain = 0
KMC1 160945Z 24004KT 17/16 A2997 RMK A01 T01740159  RH  091%=      5-min Rain = 0
KMC1 160946Z 24004KT 17/16 A2997 RMK A01 T01740159  RH  091%=      5-min Rain = 0
KMC1 160947Z 25003KT 17/16 A2996 RMK A01 T01740159  RH  091%=      5-min Rain = 0
KMC1 160948Z 24003KT 17/16 A2997 RMK A01 T01740159  RH  091%=      5-min Rain = 0
KMC1 160949Z 24003KT 17/16 A2997 RMK A01 T01730159  RH  091%=      5-min Rain = 0
KMC1 160950Z 23003KT 17/16 A2997 RMK A01 T01730159  RH  091%=      5-min Rain = 0
KMC1 160951Z 24003KT 17/16 A2997 RMK A01 T01730159  RH  091%=      5-min Rain = 0
KMC1 160952Z 24003KT 17/16 A2997 RMK A01 T01730159  RH  091%=      5-min Rain = 0
KMC1 160953Z 23003KT 17/16 A2997 RMK A01 T01730159  RH  091%=      5-min Rain = 0
KMC1 160954Z 24004KT 17/16 A2997 RMK A01 T01730158  RH  091%=      5-min Rain = 0
KMC1 160955Z 24004KT 17/16 A2997 RMK A01 T01720158  RH  091%=      5-min Rain = 0
KMC1 160956Z 24005KT 17/16 A2997 RMK A01 T01720159  RH  092%=      5-min Rain = 0
KMC1 160957Z 24005KT 17/16 A2997 RMK A01 T01720159  RH  092%=      5-min Rain = 0
KMC1 160958Z 25004KT 17/16 A2997 RMK A01 T01720159  RH  092%=      5-min Rain = 0
KMC1 160959Z 24005KT 17/16 A2997 RMK A01 T01720158  RH  091%=      5-min Rain = 0
KMC1 161000Z 25005KT 17/16 A2997 RMK A01 T01720157  RH  091%=      5-min Rain = 0
KMC1 161001Z 25005KT 17/16 A2997 RMK A01 T01730157  RH  090%=      5-min Rain = 0
KMC1 161002Z 25004KT 17/16 A2997 RMK A01 T01730157  RH  090%=      5-min Rain = 0
KMC1 161003Z 25004KT 17/16 A2997 RMK A01 T01730157  RH  090%=      5-min Rain = 0
KMC1 161004Z 25004KT 17/16 A2997 RMK A01 T01730158  RH  090%=      5-min Rain = 0
KMC1 161005Z 25004KT 17/16 A2997 RMK A01 T01730158  RH  091%=      5-min Rain = 0
KMC1 161006Z 25004KT 17/16 A2997 RMK A01 T01730158  RH  091%=      5-min Rain = 0
KMC1 161007Z 25003KT 17/16 A2997 RMK A01 T01730158  RH  091%=      5-min Rain = 0
KMC1 161008Z 26002KT 17/16 A2997 RMK A01 T01730158  RH  091%=      5-min Rain = 0
KMC1 161009Z 27002KT 17/16 A2997 RMK A01 T01730158  RH  091%=      5-min Rain = 0
KMC1 161010Z 28002KT 17/16 A2997 RMK A01 T01730158  RH  091%=      5-min Rain = 0
KMC1 161011Z 29002KT 17/16 A2997 RMK A01 T01730159  RH  091%=      5-min Rain = 0
KMC1 161012Z 29003KT 17/16 A2997 RMK A01 T01730159  RH  091%=      5-min Rain = 0
KMC1 161013Z 30004KT 17/16 A2997 RMK A01 T01720158  RH  091%=      5-min Rain = 0
KMC1 161014Z 29004KT 17/16 A2998 RMK A01 T01720158  RH  092%=      5-min Rain = 0
KMC1 161015Z 28005KT 17/16 A2998 RMK A01 T01720159  RH  092%=      5-min Rain = 0
KMC1 161016Z 28005KT 17/16 A2998 RMK A01 T01730160  RH  092%=      5-min Rain = 0
KMC1 161017Z 28005KT 17/16 A2998 RMK A01 T01730159  RH  092%=      5-min Rain = 0
KMC1 161018Z 28005KT 17/16 A2998 RMK A01 T01740159  RH  091%=      5-min Rain = 0
KMC1 161019Z 29006KT 17/16 A2998 RMK A01 T01740159  RH  091%=      5-min Rain = 0
KMC1 161020Z 29005KT 18/16 A2999 RMK A01 T01750158  RH  090%=      5-min Rain = 0
KMC1 161021Z 29005KT 18/16 A2999 RMK A01 T01750157  RH  089%=      5-min Rain = 0
KMC1 161022Z 29006KT 18/16 A2999 RMK A01 T01760158  RH  089%=      5-min Rain = 0
KMC1 161023Z 30005KT 18/16 A2999 RMK A01 T01760158  RH  089%=      5-min Rain = 0
KMC1 161024Z 29004KT 18/16 A2999 RMK A01 T01770158  RH  088%=      5-min Rain = 0
KMC1 161025Z 30004KT 18/16 A30 RMK A01 T01770158  RH  088%=      5-min Rain = 0
KMC1 161026Z 31004KT 18/16 A30 RMK A01 T01780158  RH  088%=      5-min Rain = 0
KMC1 161027Z 33005KT 18/16 A30 RMK A01 T01780157  RH  088%=      5-min Rain = 0
KMC1 161028Z 35007KT 18/16 A3001 RMK A01 T01780157  RH  087%=      5-min Rain = 0
KMC1 161029Z 00009KT 18/16 A3002 RMK A01 T01790157  RH  087%=      5-min Rain = 0
KMC1 161030Z 01009KT 18/16 A3002 RMK A01 T01800158  RH  087%=      5-min Rain = 0
KMC1 161031Z 01007KT 18/16 A3002 RMK A01 T01810157  RH  086%=      5-min Rain = 0
KMC1 161032Z 01011KT 18/16 A3002 RMK A01 T01820156  RH  085%=      5-min Rain = 0
KMC1 161033Z 01010KT 18/16 A3002 RMK A01 T01830156  RH  084%=      5-min Rain = 0
KMC1 161034Z 01009KT 18/16 A3002 RMK A01 T01840157  RH  084%=      5-min Rain = 0
KMC1 161035Z 36009KT 19/16 A3003 RMK A01 T01850156  RH  083%=      5-min Rain = 0
KMC1 161036Z 35010G15KT 19/16 A3003 RMK A01 T01870155  RH  081%=      5-min Rain = 0
KMC1 161037Z 36011KT 19/15 A3003 RMK A01 T01890153  RH  080%=      5-min Rain = 0
KMC1 161038Z 01011KT 19/15 A3003 RMK A01 T01910152  RH  078%=      5-min Rain = 0
KMC1 161039Z 36011KT 19/15 A3003 RMK A01 T01920152  RH  077%=      5-min Rain = 0
KMC1 161040Z 01008KT 19/15 A3004 RMK A01 T01930152  RH  077%=      5-min Rain = 0
KMC1 161041Z 01007KT 19/15 A3004 RMK A01 T01940151  RH  077%=      5-min Rain = 0
KMC1 161042Z 00009KT 19/15 A3004 RMK A01 T01940151  RH  076%=      5-min Rain = 0
KMC1 161043Z 00008KT 20/15 A3004 RMK A01 T01950151  RH  076%=      5-min Rain = 0
KMC1 161044Z 35008KT 20/15 A3004 RMK A01 T01960151  RH  075%=      5-min Rain = 0
KMC1 161045Z 35009KT 20/15 A3004 RMK A01 T01970150  RH  074%=      5-min Rain = 0
KMC1 161046Z 35009KT 20/15 A3004 RMK A01 T01980149  RH  074%=      5-min Rain = 0
KMC1 161047Z 35009KT 20/15 A3004 RMK A01 T01990150  RH  073%=      5-min Rain = 0
KMC1 161048Z 34008KT 20/15 A3005 RMK A01 T02000148  RH  072%=      5-min Rain = 0
KMC1 161049Z 36008KT 20/15 A3005 RMK A01 T02010150  RH  072%=      5-min Rain = 0
KMC1 161050Z 01010KT 20/15 A3005 RMK A01 T02010148  RH  071%=      5-min Rain = 0
KMC1 161051Z 00009G14KT 20/15 A3005 RMK A01 T02030148  RH  071%=      5-min Rain = 0
KMC1 161052Z 35010KT 20/15 A3006 RMK A01 T02030148  RH  071%=      5-min Rain = 0
KMC1 161053Z 00010KT 20/15 A3006 RMK A01 T02030150  RH  071%=      5-min Rain = 0
KMC1 161054Z 01010KT 20/15 A3006 RMK A01 T02040149  RH  071%=      5-min Rain = 0
KMC1 161055Z 36012KT 20/15 A3006 RMK A01 T02040150  RH  071%=      5-min Rain = 0
KMC1 161056Z 01010G15KT 20/15 A3006 RMK A01 T02040150  RH  071%=      5-min Rain = 0
KMC1 161057Z 01010KT 20/15 A3006 RMK A01 T02040152  RH  072%=      5-min Rain = 0
KMC1 161058Z 01009KT 20/15 A3006 RMK A01 T02030152  RH  073%=      5-min Rain = 0
KMC1 161059Z 02012KT 20/15 A3006 RMK A01 T02020153  RH  073%=      5-min Rain = 0
KMC1 161100Z 01010G15KT 20/15 A3006 RMK A01 T02020153  RH  074%=      5-min Rain = 0
KMC1 161101Z 36010G15KT 20/15 A3006 RMK A01 T02010153  RH  074%=      5-min Rain = 0
KMC1 161102Z 36011KT 20/15 A3006 RMK A01 T02010153  RH  074%=      5-min Rain = 0
KMC1 161103Z 00009KT 20/15 A3007 RMK A01 T02010154  RH  075%=      5-min Rain = 0
KMC1 161104Z 36009KT 20/15 A3007 RMK A01 T02000154  RH  075%=      5-min Rain = 0
KMC1 161105Z 36010KT 20/15 A3007 RMK A01 T01990153  RH  075%=      5-min Rain = 0
KMC1 161106Z 35011KT 20/15 A3007 RMK A01 T01990154  RH  075%=      5-min Rain = 0
KMC1 161107Z 35009KT 20/16 A3008 RMK A01 T01980155  RH  076%=      5-min Rain = 0
KMC1 161108Z 35012G17KT 20/16 A3007 RMK A01 T01970155  RH  077%=      5-min Rain = 0
KMC1 161109Z 00010G15KT 20/15 A3007 RMK A01 T01960152  RH  076%=      5-min Rain = 0
KMC1 161110Z 00010KT 20/15 A3007 RMK A01 T01960154  RH  076%=      5-min Rain = 0
KMC1 161111Z 01011KT 20/15 A3007 RMK A01 T01950153  RH  076%=      5-min Rain = 0
KMC1 161112Z 01011KT 20/15 A3007 RMK A01 T01950153  RH  076%=      5-min Rain = 0
KMC1 161113Z 03010KT 20/15 A3006 RMK A01 T01950154  RH  077%=      5-min Rain = 0.01
KMC1 161114Z 03009KT 19/16 A3006 RMK A01 T01930157  RH  080%=      5-min Rain = 0.01
KMC1 161115Z 04011KT 19/16 A3006 RMK A01 T01890157  RH  082%=      5-min Rain = 0.01
KMC1 161116Z 04011KT 19/16 A3006 RMK A01 T01870158  RH  083%=      5-min Rain = 0.01
KMC1 161117Z 05009KT 18/16 A3006 RMK A01 T01840158  RH  085%=      5-min Rain = 0
KMC1 161118Z 04008KT 18/16 A3006 RMK A01 T01830158  RH  085%=      5-min Rain = 0.01
KMC1 161119Z 04007KT 18/16 A3006 RMK A01 T01810158  RH  086%=      5-min Rain = 0.02
KMC1 161120Z 04007KT 18/16 A3006 RMK A01 T01800159  RH  088%=      5-min Rain = 0.01
KMC1 161121Z 04006KT 18/16 A3006 RMK A01 T01790159  RH  088%=      5-min Rain = 0.02
KMC1 161122Z 05005KT 18/16 A3006 RMK A01 T01780159  RH  089%=      5-min Rain = 0.01
KMC1 161123Z 05004KT 18/16 A3006 RMK A01 T01770160  RH  090%=      5-min Rain = 0
KMC1 161124Z 06003KT 18/16 A3007 RMK A01 T01760160  RH  090%=      5-min Rain = 0.01
KMC1 161125Z 06005KT 18/16 A3007 RMK A01 T01750161  RH  091%=      5-min Rain = 0
KMC1 161126Z 07004KT 17/16 A3007 RMK A01 T01740161  RH  092%=      5-min Rain = 0
KMC1 161127Z 07004KT 17/16 A3006 RMK A01 T01730161  RH  092%=      5-min Rain = 0
KMC1 161128Z 07004KT 17/16 A3006 RMK A01 T01730161  RH  093%=      5-min Rain = 0
KMC1 161129Z 07004KT 17/16 A3006 RMK A01 T01720161  RH  093%=      5-min Rain = 0
KMC1 161130Z 08004KT 17/16 A3006 RMK A01 T01720161  RH  093%=      5-min Rain = 0
KMC1 161131Z 07004KT 17/16 A3006 RMK A01 T01710161  RH  094%=      5-min Rain = 0
KMC1 161132Z 07005KT 17/16 A3006 RMK A01 T01710161  RH  094%=      5-min Rain = 0
KMC1 161133Z 06005KT 17/16 A3006 RMK A01 T01700161  RH  094%=      5-min Rain = 0
KMC1 161134Z 06004KT 17/16 A3006 RMK A01 T01700161  RH  094%=      5-min Rain = 0
KMC1 161135Z 06004KT 17/16 A3006 RMK A01 T01690161  RH  095%=      5-min Rain = 0
KMC1 161136Z 06004KT 17/16 A3006 RMK A01 T01690161  RH  095%=      5-min Rain = 0
KMC1 161137Z 05004KT 17/16 A3006 RMK A01 T01690161  RH  095%=      5-min Rain = 0
KMC1 161138Z 05005KT 17/16 A3006 RMK A01 T01690161  RH  095%=      5-min Rain = 0
KMC1 161139Z 04005KT 17/16 A3006 RMK A01 T01680160  RH  095%=      5-min Rain = 0
KMC1 161140Z 04005KT 17/16 A3006 RMK A01 T01690160  RH  095%=      5-min Rain = 0
KMC1 161141Z 04005KT 17/16 A3006 RMK A01 T01690161  RH  095%=      5-min Rain = 0
KMC1 161142Z 04004KT 17/16 A3006 RMK A01 T01690160  RH  094%=      5-min Rain = 0
KMC1 161143Z 04004KT 17/16 A3006 RMK A01 T01700160  RH  094%=      5-min Rain = 0
KMC1 161144Z 04004KT 17/16 A3006 RMK A01 T01700160  RH  094%=      5-min Rain = 0
KMC1 161145Z 03003KT 17/16 A3007 RMK A01 T01700160  RH  094%=      5-min Rain = 0
KMC1 161146Z 03004KT 17/16 A3007 RMK A01 T01700160  RH  094%=      5-min Rain = 0
KMC1 161147Z 02003KT 17/16 A3007 RMK A01 T01710160  RH  093%=      5-min Rain = 0
KMC1 161148Z 02003KT 17/16 A3007 RMK A01 T01710160  RH  093%=      5-min Rain = 0
KMC1 161149Z 03004KT 17/16 A3007 RMK A01 T01710160  RH  093%=      5-min Rain = 0
KMC1 161150Z 04005KT 17/16 A3007 RMK A01 T01720161  RH  093%=      5-min Rain = 0
KMC1 161151Z 04005KT 17/16 A3007 RMK A01 T01720160  RH  093%=      5-min Rain = 0
KMC1 161152Z 05005KT 17/16 A3007 RMK A01 T01720161  RH  093%=      5-min Rain = 0
KMC1 161153Z 05005KT 17/16 A3007 RMK A01 T01720161  RH  093%=      5-min Rain = 0
KMC1 161154Z 04006KT 17/16 A3007 RMK A01 T01720161  RH  093%=      5-min Rain = 0
KMC1 161155Z 05005KT 17/16 A3007 RMK A01 T01720160  RH  093%=      5-min Rain = 0
KMC1 161156Z 05004KT 17/16 A3006 RMK A01 T01720160  RH  093%=      5-min Rain = 0
KMC1 161157Z 05003KT 17/16 A3007 RMK A01 T01720159  RH  093%=      5-min Rain = 0
KMC1 161158Z 05003KT 17/16 A3007 RMK A01 T01720159  RH  092%=      5-min Rain = 0
KMC1 161159Z 07002KT 17/16 A3007 RMK A01 T01720160  RH  093%=      5-min Rain = 0
KMC1 161200Z 11003KT 17/16 A3007 RMK A01 T01720161  RH  093%=      5-min Rain = 0
KMC1 161201Z 11005KT 17/16 A3007 RMK A01 T01720162  RH  094%=      5-min Rain = 0
KMC1 161202Z 11005KT 17/16 A3007 RMK A01 T01710163  RH  095%=      5-min Rain = 0
KMC1 161203Z 11005KT 17/16 A3007 RMK A01 T01710163  RH  095%=      5-min Rain = 0
KMC1 161204Z 11005KT 17/16 A3007 RMK A01 T01700163  RH  096%=      5-min Rain = 0
KMC1 161205Z 10004KT 17/16 A3007 RMK A01 T01700163  RH  096%=      5-min Rain = 0
KMC1 161206Z 10004KT 17/16 A3007 RMK A01 T01700163  RH  096%=      5-min Rain = 0
KMC1 161207Z 10004KT 17/16 A3007 RMK A01 T01690163  RH  096%=      5-min Rain = 0
KMC1 161208Z 09004KT 17/16 A3007 RMK A01 T01700164  RH  096%=      5-min Rain = 0
KMC1 161209Z 08004KT 17/16 A3007 RMK A01 T01700164  RH  096%=      5-min Rain = 0
KMC1 161210Z 09004KT 17/16 A3007 RMK A01 T01690163  RH  096%=      5-min Rain = 0
KMC1 161211Z 08004KT 17/16 A3007 RMK A01 T01690163  RH  096%=      5-min Rain = 0
KMC1 161212Z 09004KT 17/16 A3007 RMK A01 T01690163  RH  096%=      5-min Rain = 0
KMC1 161213Z 10004KT 17/16 A3007 RMK A01 T01700163  RH  096%=      5-min Rain = 0
KMC1 161214Z 09003KT 17/16 A3006 RMK A01 T01700164  RH  096%=      5-min Rain = 0
KMC1 161215Z 08003KT 17/16 A3006 RMK A01 T01700164  RH  096%=      5-min Rain = 0
KMC1 161216Z 08004KT 17/16 A3006 RMK A01 T01710164  RH  096%=      5-min Rain = 0
KMC1 161217Z 09004KT 17/16 A3006 RMK A01 T01700164  RH  096%=      5-min Rain = 0
KMC1 161218Z 09005KT 17/16 A3006 RMK A01 T01710164  RH  096%=      5-min Rain = 0
KMC1 161219Z 09005KT 17/16 A3006 RMK A01 T01700164  RH  096%=      5-min Rain = 0
KMC1 161220Z 09005KT 17/17 A3006 RMK A01 T01710165  RH  096%=      5-min Rain = 0
KMC1 161221Z 10005KT 17/17 A3006 RMK A01 T01700165  RH  096%=      5-min Rain = 0
KMC1 161222Z 10006KT 17/17 A3006 RMK A01 T01710165  RH  096%=      5-min Rain = 0
KMC1 161223Z 10006KT 17/17 A3006 RMK A01 T01700165  RH  096%=      5-min Rain = 0
KMC1 161224Z 11006KT 17/16 A3006 RMK A01 T01700164  RH  096%=      5-min Rain = 0
KMC1 161225Z 10005KT 17/16 A3006 RMK A01 T01700164  RH  096%=      5-min Rain = 0
KMC1 161226Z 11005KT 17/16 A3006 RMK A01 T01700164  RH  096%=      5-min Rain = 0
KMC1 161227Z 10004KT 17/16 A3005 RMK A01 T01700164  RH  096%=      5-min Rain = 0
KMC1 161228Z 10004KT 17/16 A3005 RMK A01 T01710164  RH  096%=      5-min Rain = 0
KMC1 161229Z 09004KT 17/16 A3005 RMK A01 T01700163  RH  096%=      5-min Rain = 0
KMC1 161230Z 09003KT 17/16 A3005 RMK A01 T01710164  RH  096%=      5-min Rain = 0
KMC1 161231Z 08004KT 17/16 A3005 RMK A01 T01710163  RH  096%=      5-min Rain = 0
KMC1 161232Z 08004KT 17/16 A3005 RMK A01 T01700163  RH  096%=      5-min Rain = 0
KMC1 161233Z 08004KT 17/16 A3005 RMK A01 T01710164  RH  096%=      5-min Rain = 0
KMC1 161234Z 08004KT 17/16 A3005 RMK A01 T01710164  RH  096%=      5-min Rain = 0
KMC1 161235Z 09004KT 17/16 A3005 RMK A01 T01710164  RH  096%=      5-min Rain = 0
KMC1 161236Z 09004KT 17/16 A3005 RMK A01 T01720164  RH  096%=      5-min Rain = 0
KMC1 161237Z 09003KT 17/16 A3005 RMK A01 T01720164  RH  095%=      5-min Rain = 0
KMC1 161238Z 09003KT 17/17 A3005 RMK A01 T01730165  RH  095%=      5-min Rain = 0
KMC1 161239Z 08004KT 17/17 A3005 RMK A01 T01730165  RH  095%=      5-min Rain = 0
KMC1 161240Z 08003KT 17/17 A3005 RMK A01 T01730165  RH  095%=      5-min Rain = 0
KMC1 161241Z 08003KT 17/17 A3005 RMK A01 T01740165  RH  095%=      5-min Rain = 0
KMC1 161242Z 07002KT 17/17 A3005 RMK A01 T01740165  RH  094%=      5-min Rain = 0
KMC1 161243Z 08002KT 18/17 A3005 RMK A01 T01750165  RH  094%=      5-min Rain = 0
KMC1 161244Z 09004KT 18/17 A3005 RMK A01 T01750166  RH  094%=      5-min Rain = 0
KMC1 161245Z 09003KT 18/17 A3005 RMK A01 T01760166  RH  094%=      5-min Rain = 0
KMC1 161246Z 10004KT 18/17 A3005 RMK A01 T01770166  RH  094%=      5-min Rain = 0
KMC1 161247Z 10005KT 18/17 A3004 RMK A01 T01770166  RH  093%=      5-min Rain = 0
KMC1 161248Z 10005KT 18/17 A3004 RMK A01 T01780167  RH  093%=      5-min Rain = 0
KMC1 161249Z 10005KT 18/17 A3004 RMK A01 T01780166  RH  093%=      5-min Rain = 0
KMC1 161250Z 10005KT 18/17 A3004 RMK A01 T01790167  RH  093%=      5-min Rain = 0
KMC1 161251Z 10006KT 18/17 A3003 RMK A01 T01790167  RH  092%=      5-min Rain = 0
KMC1 161252Z 10005KT 18/17 A3003 RMK A01 T01790166  RH  092%=      5-min Rain = 0
KMC1 161253Z 10005KT 18/17 A3003 RMK A01 T01800166  RH  092%=      5-min Rain = 0
KMC1 161254Z 10005KT 18/17 A3003 RMK A01 T01810166  RH  091%=      5-min Rain = 0
KMC1 161255Z 11005KT 18/17 A3002 RMK A01 T01810166  RH  091%=      5-min Rain = 0
KMC1 161256Z 11004KT 18/17 A3002 RMK A01 T01820166  RH  090%=      5-min Rain = 0
KMC1 161257Z 12005KT 18/17 A3002 RMK A01 T01830167  RH  090%=      5-min Rain = 0
KMC1 161258Z 12006KT 18/17 A3002 RMK A01 T01840167  RH  090%=      5-min Rain = 0
KMC1 161259Z 13006KT 19/17 A3002 RMK A01 T01850167  RH  089%=      5-min Rain = 0
KMC1 161300Z 13005KT 19/17 A3002 RMK A01 T01860168  RH  089%=      5-min Rain = 0
KMC1 161301Z 14006KT 19/17 A3002 RMK A01 T01870169  RH  089%=      5-min Rain = 0
KMC1 161302Z 14005KT 19/17 A3001 RMK A01 T01880168  RH  088%=      5-min Rain = 0
KMC1 161303Z 14006KT 19/17 A3001 RMK A01 T01880167  RH  087%=      5-min Rain = 0
KMC1 161304Z 15005KT 19/17 A3001 RMK A01 T01890166  RH  086%=      5-min Rain = 0
KMC1 161305Z 15005KT 19/17 A3001 RMK A01 T01900168  RH  087%=      5-min Rain = 0
KMC1 161306Z 16005KT 19/17 A3001 RMK A01 T01910167  RH  086%=      5-min Rain = 0
KMC1 161307Z 15005KT 19/17 A3001 RMK A01 T01910168  RH  086%=      5-min Rain = 0
KMC1 161308Z 15006KT 19/17 A3001 RMK A01 T01920167  RH  086%=      5-min Rain = 0
KMC1 161309Z 15005KT 19/17 A3001 RMK A01 T01930167  RH  085%=      5-min Rain = 0
KMC1 161310Z 15004KT 19/17 A30 RMK A01 T01930168  RH  085%=      5-min Rain = 0
KMC1 161311Z 16005KT 19/17 A30 RMK A01 T01940167  RH  085%=      5-min Rain = 0
KMC1 161312Z 16004KT 19/17 A30 RMK A01 T01940166  RH  084%=      5-min Rain = 0
KMC1 161313Z 17005KT 20/17 A30 RMK A01 T01950166  RH  083%=      5-min Rain = 0
KMC1 161314Z 16004KT 20/17 A30 RMK A01 T01950166  RH  083%=      5-min Rain = 0
KMC1 161315Z 17005KT 20/17 A30 RMK A01 T01960167  RH  083%=      5-min Rain = 0
KMC1 161316Z 17005KT 20/17 A30 RMK A01 T01970168  RH  083%=      5-min Rain = 0
KMC1 161317Z 17004KT 20/17 A30 RMK A01 T01980168  RH  083%=      5-min Rain = 0
KMC1 161318Z 16004KT 20/17 A30 RMK A01 T01980171  RH  084%=      5-min Rain = 0
KMC1 161319Z 16005KT 20/17 A30 RMK A01 T01990170  RH  083%=      5-min Rain = 0
KMC1 161320Z 16004KT 20/17 A30 RMK A01 T01990167  RH  082%=      5-min Rain = 0
KMC1 161321Z 16004KT 20/17 A30 RMK A01 T02000168  RH  082%=      5-min Rain = 0
KMC1 161322Z 14003KT 20/17 A30 RMK A01 T02010169  RH  082%=      5-min Rain = 0
KMC1 161323Z 15003KT 20/17 A30 RMK A01 T02020170  RH  082%=      5-min Rain = 0
KMC1 161324Z 16003KT 20/17 A30 RMK A01 T02030171  RH  082%=      5-min Rain = 0
KMC1 161325Z 15004KT 20/17 A30 RMK A01 T02040169  RH  080%=      5-min Rain = 0
KMC1 161326Z 15003KT 21/17 A30 RMK A01 T02050171  RH  081%=      5-min Rain = 0
KMC1 161327Z 14005KT 21/17 A30 RMK A01 T02050172  RH  081%=      5-min Rain = 0
KMC1 161328Z 14003KT 21/17 A3001 RMK A01 T02060172  RH  081%=      5-min Rain = 0
KMC1 161329Z 14004KT 21/17 A30 RMK A01 T02060172  RH  081%=      5-min Rain = 0
KMC1 161330Z 15004KT 21/17 A30 RMK A01 T02060172  RH  081%=      5-min Rain = 0
KMC1 161331Z 13003KT 21/17 A30 RMK A01 T02060174  RH  082%=      5-min Rain = 0
KMC1 161332Z 14001KT 21/18 A30 RMK A01 T02070175  RH  082%=      5-min Rain = 0
KMC1 161333Z 15002KT 21/18 A30 RMK A01 T02080175  RH  082%=      5-min Rain = 0
KMC1 161334Z 15003KT 21/17 A30 RMK A01 T02080172  RH  080%=      5-min Rain = 0
KMC1 161335Z 14005KT 21/17 A30 RMK A01 T02090173  RH  080%=      5-min Rain = 0
KMC1 161336Z 15005KT 21/17 A30 RMK A01 T02090170  RH  078%=      5-min Rain = 0
KMC1 161337Z 16004KT 21/17 A30 RMK A01 T02100169  RH  078%=      5-min Rain = 0
KMC1 161338Z 16002KT 21/17 A30 RMK A01 T02090172  RH  079%=      5-min Rain = 0
KMC1 161339Z 16003KT 21/17 A30 RMK A01 T02100173  RH  079%=      5-min Rain = 0
KMC1 161340Z 16005KT 21/17 A30 RMK A01 T02100174  RH  080%=      5-min Rain = 0
KMC1 161341Z 16005KT 21/17 A30 RMK A01 T02110170  RH  078%=      5-min Rain = 0
KMC1 161342Z 17004KT 21/17 A30 RMK A01 T02110173  RH  079%=      5-min Rain = 0
KMC1 161343Z 17006KT 21/17 A30 RMK A01 T02110170  RH  077%=      5-min Rain = 0
KMC1 161344Z 17006KT 21/17 A30 RMK A01 T02110170  RH  077%=      5-min Rain = 0
KMC1 161345Z 17007KT 21/17 A30 RMK A01 T02110170  RH  077%=      5-min Rain = 0
KMC1 161346Z 17006KT 21/17 A30 RMK A01 T02100170  RH  078%=      5-min Rain = 0
KMC1 161347Z 17006KT 21/17 A30 RMK A01 T02100172  RH  079%=      5-min Rain = 0
KMC1 161348Z 17008KT 21/17 A3001 RMK A01 T02110168  RH  077%=      5-min Rain = 0
KMC1 161349Z 17008KT 21/17 A3001 RMK A01 T02110169  RH  077%=      5-min Rain = 0
KMC1 161350Z 17008KT 21/17 A3001 RMK A01 T02110166  RH  076%=      5-min Rain = 0
KMC1 161351Z 16009KT 21/17 A3001 RMK A01 T02110165  RH  075%=      5-min Rain = 0
KMC1 161352Z 16009KT 21/17 A3001 RMK A01 T02120165  RH  075%=      5-min Rain = 0
KMC1 161353Z 17005KT 21/17 A3001 RMK A01 T02120167  RH  076%=      5-min Rain = 0
KMC1 161354Z 17009KT 21/17 A3001 RMK A01 T02130170  RH  077%=      5-min Rain = 0
KMC1 161355Z 17009KT 21/17 A3001 RMK A01 T02130167  RH  075%=      5-min Rain = 0
KMC1 161356Z 17006KT 21/17 A3001 RMK A01 T02140167  RH  075%=      5-min Rain = 0
KMC1 161357Z 18007KT 21/17 A3001 RMK A01 T02140167  RH  074%=      5-min Rain = 0
KMC1 161358Z 16007KT 22/17 A3001 RMK A01 T02150167  RH  074%=      5-min Rain = 0
KMC1 161359Z 17007KT 22/17 A3001 RMK A01 T02150167  RH  074%=      5-min Rain = 0
KMC1 161400Z 18005KT 22/17 A3001 RMK A01 T02160168  RH  074%=      5-min Rain = 0
KMC1 161401Z 18006KT 22/17 A3001 RMK A01 T02170167  RH  073%=      5-min Rain = 0
KMC1 161402Z 18006KT 22/17 A3001 RMK A01 T02180165  RH  072%=      5-min Rain = 0
KMC1 161403Z 16005KT 22/17 A3001 RMK A01 T02190167  RH  072%=      5-min Rain = 0
KMC1 161404Z 17003KT 22/17 A3001 RMK A01 T02200165  RH  071%=      5-min Rain = 0
KMC1 161405Z 15004KT 22/17 A3001 RMK A01 T02210167  RH  071%=      5-min Rain = 0
KMC1 161406Z 15006KT 22/17 A3001 RMK A01 T02230167  RH  071%=      5-min Rain = 0
KMC1 161407Z 15004KT 22/17 A3001 RMK A01 T02240168  RH  071%=      5-min Rain = 0
KMC1 161408Z 15006KT 23/17 A3001 RMK A01 T02250168  RH  070%=      5-min Rain = 0
KMC1 161409Z 15004KT 23/17 A30 RMK A01 T02270168  RH  069%=      5-min Rain = 0
KMC1 161410Z 16007G13KT 23/17 A30 RMK A01 T02280167  RH  068%=      5-min Rain = 0
KMC1 161411Z 15006KT 23/16 A30 RMK A01 T02290162  RH  066%=      5-min Rain = 0
KMC1 161412Z 16006KT 23/17 A30 RMK A01 T02290165  RH  067%=      5-min Rain = 0
KMC1 161413Z 16005KT 23/17 A30 RMK A01 T02290166  RH  067%=      5-min Rain = 0
KMC1 161414Z 15006KT 23/17 A30 RMK A01 T02300167  RH  068%=      5-min Rain = 0
KMC1 161415Z 16008KT 23/16 A3001 RMK A01 T02310164  RH  066%=      5-min Rain = 0
KMC1 161416Z 15004KT 23/16 A3001 RMK A01 T02310164  RH  066%=      5-min Rain = 0
KMC1 161417Z 17007KT 23/16 A3001 RMK A01 T02320163  RH  065%=      5-min Rain = 0
KMC1 161418Z 16005KT 23/16 A3001 RMK A01 T02310164  RH  066%=      5-min Rain = 0
KMC1 161419Z 16004KT 23/16 A3001 RMK A01 T02310162  RH  065%=      5-min Rain = 0
KMC1 161420Z 16006KT 23/17 A3001 RMK A01 T02320165  RH  066%=      5-min Rain = 0
KMC1 161421Z 17009KT 23/16 A3001 RMK A01 T02330159  RH  063%=      5-min Rain = 0
KMC1 161422Z 17009KT 23/16 A3001 RMK A01 T02330157  RH  063%=      5-min Rain = 0
KMC1 161423Z 17007KT 23/16 A3001 RMK A01 T02320158  RH  063%=      5-min Rain = 0
KMC1 161424Z 18007KT 23/16 A3001 RMK A01 T02320160  RH  064%=      5-min Rain = 0
KMC1 161425Z 17006KT 23/16 A3002 RMK A01 T02330159  RH  063%=      5-min Rain = 0
KMC1 161426Z 17008KT 23/16 A3002 RMK A01 T02340157  RH  062%=      5-min Rain = 0
KMC1 161427Z 17008KT 23/15 A3002 RMK A01 T02340154  RH  061%=      5-min Rain = 0
KMC1 161428Z 16006KT 23/16 A3002 RMK A01 T02340158  RH  062%=      5-min Rain = 0
KMC1 161429Z 17005KT 24/16 A3002 RMK A01 T02360162  RH  063%=      5-min Rain = 0
KMC1 161430Z 17004KT 24/16 A3002 RMK A01 T02370160  RH  062%=      5-min Rain = 0
KMC1 161431Z 16006KT 24/16 A3002 RMK A01 T02380162  RH  062%=      5-min Rain = 0
KMC1 161432Z 17005KT 24/16 A3002 RMK A01 T02390159  RH  061%=      5-min Rain = 0
KMC1 161433Z 15004KT 24/16 A3002 RMK A01 T02390164  RH  063%=      5-min Rain = 0
KMC1 161434Z 17007KT 24/16 A3002 RMK A01 T02410164  RH  062%=      5-min Rain = 0
KMC1 161435Z 16009KT 24/15 A3002 RMK A01 T02420153  RH  058%=      5-min Rain = 0
KMC1 161436Z 17007KT 24/16 A3002 RMK A01 T02410155  RH  058%=      5-min Rain = 0
KMC1 161437Z 16006KT 24/16 A3002 RMK A01 T02410157  RH  059%=      5-min Rain = 0
KMC1 161438Z 18006KT 24/16 A3002 RMK A01 T02410155  RH  058%=      5-min Rain = 0
KMC1 161439Z 18004KT 24/16 A3002 RMK A01 T02420155  RH  058%=      5-min Rain = 0
KMC1 161440Z 17004KT 24/16 A3002 RMK A01 T02420160  RH  060%=      5-min Rain = 0
KMC1 161441Z 18007KT 24/16 A3002 RMK A01 T02440159  RH  059%=      5-min Rain = 0
KMC1 161442Z 19005KT 25/16 A3002 RMK A01 T02450157  RH  058%=      5-min Rain = 0
KMC1 161443Z 19005KT 25/16 A3002 RMK A01 T02450156  RH  058%=      5-min Rain = 0
KMC1 161444Z 20006KT 25/16 A3002 RMK A01 T02450158  RH  058%=      5-min Rain = 0
KMC1 161445Z 20007KT 25/15 A3002 RMK A01 T02460153  RH  056%=      5-min Rain = 0
KMC1 161446Z 21005KT 25/16 A3002 RMK A01 T02450155  RH  057%=      5-min Rain = 0
KMC1 161447Z 20006KT 25/15 A3002 RMK A01 T02450153  RH  057%=      5-min Rain = 0
KMC1 161448Z 19006KT 25/15 A3002 RMK A01 T02450149  RH  055%=      5-min Rain = 0
KMC1 161449Z 19005KT 25/15 A3002 RMK A01 T02460149  RH  055%=      5-min Rain = 0
KMC1 161450Z 20005KT 25/15 A3002 RMK A01 T02460153  RH  056%=      5-min Rain = 0
KMC1 161451Z 20006KT 25/15 A3002 RMK A01 T02480151  RH  055%=      5-min Rain = 0
KMC1 161452Z 19005KT 25/15 A3002 RMK A01 T02490152  RH  055%=      5-min Rain = 0
KMC1 161453Z 20006KT 25/15 A3002 RMK A01 T02500154  RH  055%=      5-min Rain = 0
KMC1 161454Z 20006KT 25/15 A3002 RMK A01 T02500151  RH  054%=      5-min Rain = 0
KMC1 161455Z 20006KT 25/15 A3002 RMK A01 T02490149  RH  054%=      5-min Rain = 0
KMC1 161456Z 20003KT 25/15 A3002 RMK A01 T02490148  RH  054%=      5-min Rain = 0
KMC1 161457Z 20004KT 25/16 A3002 RMK A01 T02490155  RH  056%=      5-min Rain = 0
KMC1 161458Z 18003KT 25/16 A3003 RMK A01 T02510156  RH  056%=      5-min Rain = 0
KMC1 161459Z 21004KT 25/16 A3003 RMK A01 T02530160  RH  056%=      5-min Rain = 0
KMC1 161500Z 20004KT 26/15 A3003 RMK A01 T02560154  RH  053%=      5-min Rain = 0
KMC1 161501Z 17002KT 26/15 A3003 RMK A01 T02560145  RH  050%=      5-min Rain = 0
KMC1 161502Z 19003KT 26/15 A3003 RMK A01 T02560148  RH  051%=      5-min Rain = 0
KMC1 161503Z 20002KT 26/15 A3003 RMK A01 T02560149  RH  051%=      5-min Rain = 0
KMC1 161504Z 24001KT 26/15 A3003 RMK A01 T02560147  RH  051%=      5-min Rain = 0
KMC1 161505Z 21002KT 26/15 A3003 RMK A01 T02560151  RH  052%=      5-min Rain = 0
KMC1 161506Z 23004KT 26/16 A3003 RMK A01 T02580155  RH  053%=      5-min Rain = 0
KMC1 161507Z 25003KT 26/15 A3003 RMK A01 T02590150  RH  051%=      5-min Rain = 0
KMC1 161508Z 25002KT 26/16 A3003 RMK A01 T02590157  RH  053%=      5-min Rain = 0
KMC1 161509Z 16003KT 26/16 A3004 RMK A01 T02620157  RH  052%=      5-min Rain = 0
KMC1 161510Z 20002KT 26/15 A3004 RMK A01 T02630147  RH  049%=      5-min Rain = 0
KMC1 161511Z 20001KT 26/15 A3004 RMK A01 T02620148  RH  050%=      5-min Rain = 0
KMC1 161512Z 16003KT 26/15 A3003 RMK A01 T02610151  RH  051%=      5-min Rain = 0
KMC1 161513Z 15003KT 26/15 A3003 RMK A01 T02620148  RH  050%=      5-min Rain = 0
KMC1 161514Z 17003KT 26/15 A3003 RMK A01 T02630149  RH  049%=      5-min Rain = 0
KMC1 161515Z 18002KT 26/15 A3003 RMK A01 T02640149  RH  049%=      5-min Rain = 0
KMC1 161516Z 14003KT 26/15 A3003 RMK A01 T02640147  RH  049%=      5-min Rain = 0
KMC1 161517Z 16004KT 26/15 A3003 RMK A01 T02640152  RH  050%=      5-min Rain = 0
KMC1 161518Z 17005KT 27/14 A3003 RMK A01 T02660144  RH  047%=      5-min Rain = 0
KMC1 161519Z 18005KT 27/14 A3003 RMK A01 T02660144  RH  047%=      5-min Rain = 0
KMC1 161520Z 17005KT 27/15 A3003 RMK A01 T02660148  RH  048%=      5-min Rain = 0
KMC1 161521Z 15004KT 27/15 A3003 RMK A01 T02660149  RH  049%=      5-min Rain = 0
KMC1 161522Z 13002KT 27/14 A3003 RMK A01 T02660144  RH  047%=      5-min Rain = 0
KMC1 161523Z 13002KT 27/15 A3003 RMK A01 T02670147  RH  048%=      5-min Rain = 0
KMC1 161524Z 12001KT 27/15 A3003 RMK A01 T02680145  RH  047%=      5-min Rain = 0
KMC1 161525Z 21001KT 27/14 A3003 RMK A01 T02700143  RH  046%=      5-min Rain = 0
KMC1 161526Z 26001KT 27/14 A3003 RMK A01 T02690142  RH  045%=      5-min Rain = 0
KMC1 161527Z 26001KT 27/14 A3003 RMK A01 T02680141  RH  045%=      5-min Rain = 0
KMC1 161528Z 25000KT 27/14 A3003 RMK A01 T02670141  RH  046%=      5-min Rain = 0
KMC1 161529Z 35001KT 27/15 A3003 RMK A01 T02660146  RH  048%=      5-min Rain = 0
KMC1 161530Z 12001KT 27/15 A3003 RMK A01 T02660150  RH  049%=      5-min Rain = 0
KMC1 161531Z 14002KT 27/15 A3003 RMK A01 T02690149  RH  048%=      5-min Rain = 0
KMC1 161532Z 11002KT 27/15 A3003 RMK A01 T02720150  RH  047%=      5-min Rain = 0
KMC1 161533Z 12001KT 27/15 A3003 RMK A01 T02730147  RH  046%=      5-min Rain = 0
KMC1 161534Z 13003KT 28/15 A3003 RMK A01 T02750147  RH  046%=      5-min Rain = 0
KMC1 161535Z 12003KT 28/15 A3003 RMK A01 T02760148  RH  045%=      5-min Rain = 0
KMC1 161536Z 12003KT 28/14 A3003 RMK A01 T02770144  RH  044%=      5-min Rain = 0
KMC1 161537Z 09005KT 28/15 A3004 RMK A01 T02780149  RH  045%=      5-min Rain = 0
KMC1 161538Z 09005KT 28/15 A3004 RMK A01 T02770147  RH  045%=      5-min Rain = 0
KMC1 161539Z 11001KT 28/15 A3004 RMK A01 T02760147  RH  045%=      5-min Rain = 0
KMC1 161540Z 15001KT 28/15 A3004 RMK A01 T02750146  RH  045%=      5-min Rain = 0
KMC1 161541Z 09002KT 27/15 A3004 RMK A01 T02740151  RH  047%=      5-min Rain = 0
KMC1 161542Z 19000KT 28/15 A3004 RMK A01 T02750145  RH  045%=      5-min Rain = 0
KMC1 161543Z 19001KT 28/15 A3004 RMK A01 T02750148  RH  046%=      5-min Rain = 0
KMC1 161544Z 06000KT 27/15 A3004 RMK A01 T02730147  RH  046%=      5-min Rain = 0
KMC1 161545Z 04001KT 27/15 A3005 RMK A01 T02730152  RH  048%=      5-min Rain = 0
KMC1 161546Z 05003KT 27/16 A3005 RMK A01 T02740156  RH  048%=      5-min Rain = 0
KMC1 161547Z 05004KT 28/15 A3005 RMK A01 T02780154  RH  047%=      5-min Rain = 0
KMC1 161548Z 05004KT 28/15 A3005 RMK A01 T02780147  RH  045%=      5-min Rain = 0
KMC1 161549Z 07002KT 28/14 A3005 RMK A01 T02750144  RH  045%=      5-min Rain = 0
KMC1 161550Z 00000KT 27/15 A3004 RMK A01 T02740145  RH  045%=      5-min Rain = 0
KMC1 161551Z 36002KT 27/15 A3004 RMK A01 T02740150  RH  047%=      5-min Rain = 0
KMC1 161552Z 03002KT 28/16 A3004 RMK A01 T02760155  RH  047%=      5-min Rain = 0
KMC1 161553Z 06002KT 28/14 A3004 RMK A01 T02780144  RH  044%=      5-min Rain = 0
KMC1 161554Z 08003KT 28/15 A3004 RMK A01 T02760145  RH  045%=      5-min Rain = 0
KMC1 161555Z 07004KT 28/14 A3004 RMK A01 T02760141  RH  044%=      5-min Rain = 0
KMC1 161556Z 06004KT 28/15 A3004 RMK A01 T02750147  RH  045%=      5-min Rain = 0
KMC1 161557Z 05004KT 28/15 A3004 RMK A01 T02770145  RH  044%=      5-min Rain = 0
KMC1 161558Z 06003KT 28/15 A3004 RMK A01 T02770146  RH  045%=      5-min Rain = 0
KMC1 161559Z 05003KT 28/14 A3004 RMK A01 T02770143  RH  044%=      5-min Rain = 0
KMC1 161600Z 04003KT 28/15 A3004 RMK A01 T02770146  RH  045%=      5-min Rain = 0
KMC1 161601Z 07002KT 28/15 A3004 RMK A01 T02770147  RH  045%=      5-min Rain = 0
KMC1 161602Z 07002KT 28/15 A3004 RMK A01 T02790146  RH  044%=      5-min Rain = 0
KMC1 161603Z 06002KT 28/15 A3004 RMK A01 T02790147  RH  044%=      5-min Rain = 0
KMC1 161604Z 06001KT 28/14 A3004 RMK A01 T02790144  RH  044%=      5-min Rain = 0
KMC1 161605Z 00000KT 28/14 A3004 RMK A01 T02790138  RH  042%=      5-min Rain = 0
KMC1 161606Z 01000KT 28/14 A3004 RMK A01 T02790138  RH  042%=      5-min Rain = 0
KMC1 161607Z 34000KT 28/14 A3004 RMK A01 T02790142  RH  043%=      5-min Rain = 0
KMC1 161608Z 29000KT 28/15 A3004 RMK A01 T02800148  RH  044%=      5-min Rain = 0
KMC1 161609Z 30000KT 28/15 A3004 RMK A01 T02820154  RH  046%=      5-min Rain = 0
KMC1 161610Z 06001KT 28/15 A3004 RMK A01 T02840152  RH  045%=      5-min Rain = 0
KMC1 161611Z 05002KT 29/15 A3004 RMK A01 T02850151  RH  044%=      5-min Rain = 0
KMC1 161612Z 03002KT 29/15 A3004 RMK A01 T02850153  RH  045%=      5-min Rain = 0
KMC1 161613Z 05003KT 28/15 A3004 RMK A01 T02840152  RH  044%=      5-min Rain = 0
KMC1 161614Z 01003KT 28/15 A3004 RMK A01 T02820154  RH  046%=      5-min Rain = 0
KMC1 161615Z 04006KT 28/16 A3004 RMK A01 T02810157  RH  047%=      5-min Rain = 0
KMC1 161616Z 04005KT 28/16 A3004 RMK A01 T02810159  RH  047%=      5-min Rain = 0
KMC1 161617Z 03005KT 28/16 A3005 RMK A01 T02810160  RH  048%=      5-min Rain = 0
KMC1 161618Z 03006KT 28/17 A3005 RMK A01 T02820165  RH  049%=      5-min Rain = 0
KMC1 161619Z 05006KT 28/16 A3005 RMK A01 T02830159  RH  047%=      5-min Rain = 0
KMC1 161620Z 02003KT 28/16 A3005 RMK A01 T02830163  RH  048%=      5-min Rain = 0
KMC1 161621Z 01007KT 28/16 A3005 RMK A01 T02830163  RH  048%=      5-min Rain = 0
KMC1 161622Z 36006KT 28/16 A3005 RMK A01 T02830161  RH  048%=      5-min Rain = 0
KMC1 161623Z 01007KT 28/16 A3005 RMK A01 T02820164  RH  049%=      5-min Rain = 0
KMC1 161624Z 00006KT 28/16 A3005 RMK A01 T02810162  RH  048%=      5-min Rain = 0
KMC1 161625Z 04005KT 28/16 A3005 RMK A01 T02810164  RH  049%=      5-min Rain = 0
KMC1 161626Z 05006KT 28/16 A3005 RMK A01 T02820164  RH  049%=      5-min Rain = 0
KMC1 161627Z 04007KT 28/16 A3005 RMK A01 T02830163  RH  048%=      5-min Rain = 0
KMC1 161628Z 04008KT 28/16 A3005 RMK A01 T02830158  RH  047%=      5-min Rain = 0
KMC1 161629Z 04007KT 28/16 A3005 RMK A01 T02830156  RH  046%=      5-min Rain = 0
KMC1 161630Z 02008KT 28/16 A3005 RMK A01 T02820159  RH  047%=      5-min Rain = 0
KMC1 161631Z 02007KT 28/16 A3005 RMK A01 T02810158  RH  047%=      5-min Rain = 0
KMC1 161632Z 02005KT 28/16 A3005 RMK A01 T02800159  RH  048%=      5-min Rain = 0
KMC1 161633Z 04006KT 28/16 A3005 RMK A01 T02800162  RH  049%=      5-min Rain = 0
KMC1 161634Z 03006KT 28/15 A3005 RMK A01 T02810151  RH  045%=      5-min Rain = 0
KMC1 161635Z 02007KT 28/15 A3005 RMK A01 T02810151  RH  045%=      5-min Rain = 0
KMC1 161636Z 03005KT 28/15 A3005 RMK A01 T02800152  RH  046%=      5-min Rain = 0
KMC1 161637Z 02006KT 28/15 A3005 RMK A01 T02790150  RH  045%=      5-min Rain = 0
KMC1 161638Z 03006G12KT 28/16 A3005 RMK A01 T02790155  RH  047%=      5-min Rain = 0
KMC1 161639Z 03010KT 28/15 A3005 RMK A01 T02810152  RH  046%=      5-min Rain = 0
KMC1 161640Z 04007KT 28/15 A3005 RMK A01 T02810149  RH  044%=      5-min Rain = 0
KMC1 161641Z 05005KT 28/15 A3005 RMK A01 T02790154  RH  047%=      5-min Rain = 0
KMC1 161642Z 07006KT 28/15 A3005 RMK A01 T02810145  RH  043%=      5-min Rain = 0
KMC1 161643Z 04006KT 28/14 A3005 RMK A01 T02840143  RH  042%=      5-min Rain = 0
KMC1 161644Z 04006KT 29/14 A3005 RMK A01 T02860141  RH  041%=      5-min Rain = 0
KMC1 161645Z 05008KT 29/14 A3005 RMK A01 T02860143  RH  042%=      5-min Rain = 0
KMC1 161646Z 05007KT 29/14 A3005 RMK A01 T02850135  RH  040%=      5-min Rain = 0
KMC1 161647Z 06005KT 29/14 A3005 RMK A01 T02850144  RH  042%=      5-min Rain = 0
KMC1 161648Z 04006KT 29/15 A3005 RMK A01 T02860145  RH  042%=      5-min Rain = 0
KMC1 161649Z 07006KT 29/14 A3005 RMK A01 T02850143  RH  042%=      5-min Rain = 0
KMC1 161650Z 08007KT 29/15 A3005 RMK A01 T02870145  RH  042%=      5-min Rain = 0
KMC1 161651Z 07005G10KT 29/15 A3005 RMK A01 T02880146  RH  042%=      5-min Rain = 0
KMC1 161652Z 07008KT 29/15 A3005 RMK A01 T02890145  RH  041%=      5-min Rain = 0
KMC1 161653Z 06008KT 29/15 A3005 RMK A01 T02910148  RH  042%=      5-min Rain = 0
KMC1 161654Z 05007KT 29/14 A3005 RMK A01 T02920139  RH  039%=      5-min Rain = 0
KMC1 161655Z 03008KT 29/13 A3005 RMK A01 T02910131  RH  037%=      5-min Rain = 0
KMC1 161656Z 04009KT 29/14 A3005 RMK A01 T02890139  RH  040%=      5-min Rain = 0
KMC1 161657Z 04009KT 29/15 A3005 RMK A01 T02870145  RH  042%=      5-min Rain = 0
KMC1 161658Z 06005KT 29/14 A3005 RMK A01 T02870141  RH  041%=      5-min Rain = 0
KMC1 161659Z 03006KT 29/15 A3005 RMK A01 T02880145  RH  042%=      5-min Rain = 0
KMC1 161700Z 03005KT 29/15 A3005 RMK A01 T02890145  RH  041%=      5-min Rain = 0
KMC1 161701Z 03008KT 29/15 A3005 RMK A01 T02890148  RH  042%=      5-min Rain = 0
KMC1 161702Z 02008KT 29/15 A3005 RMK A01 T02880147  RH  042%=      5-min Rain = 0
KMC1 161703Z 05007KT 29/15 A3005 RMK A01 T02870152  RH  044%=      5-min Rain = 0
KMC1 161704Z 05009KT 29/15 A3005 RMK A01 T02890151  RH  043%=      5-min Rain = 0
KMC1 161705Z 04009KT 29/15 A3005 RMK A01 T02890146  RH  042%=      5-min Rain = 0
KMC1 161706Z 07006KT 29/15 A3005 RMK A01 T02860150  RH  043%=      5-min Rain = 0
KMC1 161707Z 04008KT 29/15 A3005 RMK A01 T02860150  RH  043%=      5-min Rain = 0
KMC1 161708Z 05008KT 29/15 A3005 RMK A01 T02880146  RH  042%=      5-min Rain = 0
KMC1 161709Z 05006KT 29/16 A3005 RMK A01 T02870155  RH  045%=      5-min Rain = 0
KMC1 161710Z 04007KT 29/15 A3005 RMK A01 T02870152  RH  044%=      5-min Rain = 0
KMC1 161711Z 03005KT 29/16 A3005 RMK A01 T02860157  RH  046%=      5-min Rain = 0
KMC1 161712Z 04008G14KT 29/16 A3005 RMK A01 T02860157  RH  045%=      5-min Rain = 0
KMC1 161713Z 06010KT 29/15 A3005 RMK A01 T02870153  RH  044%=      5-min Rain = 0
KMC1 161714Z 05007KT 29/15 A3005 RMK A01 T02870151  RH  044%=      5-min Rain = 0
KMC1 161715Z 05011KT 29/15 A3005 RMK A01 T02870154  RH  044%=      5-min Rain = 0
KMC1 161716Z 05007KT 29/15 A3005 RMK A01 T02870152  RH  044%=      5-min Rain = 0
KMC1 161717Z 05008KT 29/15 A3005 RMK A01 T02860148  RH  043%=      5-min Rain = 0
KMC1 161718Z 04006KT 28/15 A3005 RMK A01 T02840153  RH  045%=      5-min Rain = 0
KMC1 161719Z 03006KT 28/15 A3005 RMK A01 T02840151  RH  044%=      5-min Rain = 0
KMC1 161720Z 04005KT 28/15 A3005 RMK A01 T02830150  RH  044%=      5-min Rain = 0
KMC1 161721Z 05007KT 28/16 A3005 RMK A01 T02820158  RH  047%=      5-min Rain = 0
KMC1 161722Z 05006KT 29/16 A3005 RMK A01 T02860156  RH  045%=      5-min Rain = 0
KMC1 161723Z 02006KT 29/15 A3005 RMK A01 T02880151  RH  043%=      5-min Rain = 0
KMC1 161724Z 03004KT 29/16 A3005 RMK A01 T02870155  RH  044%=      5-min Rain = 0
KMC1 161725Z 07005KT 29/16 A3005 RMK A01 T02880163  RH  047%=      5-min Rain = 0
KMC1 161726Z 06007KT 29/16 A3005 RMK A01 T02920158  RH  044%=      5-min Rain = 0
KMC1 161727Z 05008KT 29/15 A3005 RMK A01 T02920150  RH  042%=      5-min Rain = 0
KMC1 161728Z 04008KT 29/16 A3005 RMK A01 T02900156  RH  044%=      5-min Rain = 0
KMC1 161729Z 03007KT 29/15 A3005 RMK A01 T02890149  RH  042%=      5-min Rain = 0
KMC1 161730Z 03007KT 29/15 A3005 RMK A01 T02880151  RH  043%=      5-min Rain = 0
KMC1 161731Z 02005KT 29/15 A3005 RMK A01 T02870151  RH  044%=      5-min Rain = 0
KMC1 161732Z 03005KT 29/15 A3005 RMK A01 T02860152  RH  044%=      5-min Rain = 0
KMC1 161733Z 02007KT 29/15 A3004 RMK A01 T02870154  RH  044%=      5-min Rain = 0
KMC1 161734Z 01008KT 29/15 A3004 RMK A01 T02890152  RH  043%=      5-min Rain = 0
KMC1 161735Z 01008KT 29/15 A3004 RMK A01 T02890154  RH  044%=      5-min Rain = 0
KMC1 161736Z 06007KT 29/15 A3004 RMK A01 T02890154  RH  044%=      5-min Rain = 0
KMC1 161737Z 07008KT 29/15 A3004 RMK A01 T02910152  RH  043%=      5-min Rain = 0
KMC1 161738Z 06006KT 29/15 A3004 RMK A01 T02920150  RH  042%=      5-min Rain = 0
KMC1 161739Z 08006KT 29/15 A3004 RMK A01 T02920147  RH  041%=      5-min Rain = 0
KMC1 161740Z 05004KT 29/15 A3004 RMK A01 T02920150  RH  042%=      5-min Rain = 0
KMC1 161741Z 04006KT 29/15 A3004 RMK A01 T02920145  RH  041%=      5-min Rain = 0
KMC1 161742Z 04005KT 29/15 A3004 RMK A01 T02920145  RH  041%=      5-min Rain = 0
KMC1 161743Z 05005KT 29/15 A3004 RMK A01 T02910148  RH  042%=      5-min Rain = 0
KMC1 161744Z 02007KT 29/14 A3004 RMK A01 T02920141  RH  040%=      5-min Rain = 0
KMC1 161745Z 04005KT 29/14 A3004 RMK A01 T02920139  RH  039%=      5-min Rain = 0
KMC1 161746Z 06005KT 29/14 A3004 RMK A01 T02910136  RH  039%=      5-min Rain = 0
KMC1 161747Z 07005KT 29/14 A3004 RMK A01 T02910138  RH  039%=      5-min Rain = 0
KMC1 161748Z 08004KT 29/14 A3004 RMK A01 T02930143  RH  040%=      5-min Rain = 0
KMC1 161749Z 07004KT 30/14 A3004 RMK A01 T02950136  RH  038%=      5-min Rain = 0
KMC1 161750Z 10004KT 30/14 A3004 RMK A01 T02960139  RH  038%=      5-min Rain = 0
KMC1 161751Z 04002KT 30/15 A3004 RMK A01 T02960145  RH  040%=      5-min Rain = 0
KMC1 161752Z 04006KT 30/15 A3004 RMK A01 T02970149  RH  041%=      5-min Rain = 0
KMC1 161753Z 05005KT 30/15 A3004 RMK A01 T02970151  RH  041%=      5-min Rain = 0
KMC1 161754Z 03006KT 30/15 A3004 RMK A01 T02960151  RH  041%=      5-min Rain = 0
KMC1 161755Z 04006KT 30/15 A3004 RMK A01 T02950150  RH  041%=      5-min Rain = 0
KMC1 161756Z 01005KT 29/15 A3004 RMK A01 T02930149  RH  042%=      5-min Rain = 0
KMC1 161757Z 03005KT 29/15 A3004 RMK A01 T02920153  RH  043%=      5-min Rain = 0
KMC1 161758Z 05003KT 29/14 A3004 RMK A01 T02940144  RH  040%=      5-min Rain = 0
KMC1 161759Z 05005KT 30/15 A3003 RMK A01 T02950147  RH  040%=      5-min Rain = 0
KMC1 161800Z 05004KT 30/15 A3003 RMK A01 T02970153  RH  042%=      5-min Rain = 0
KMC1 161801Z 07005KT 30/15 A3003 RMK A01 T03010150  RH  040%=      5-min Rain = 0
KMC1 161802Z 09005KT 30/14 A3003 RMK A01 T03030143  RH  038%=      5-min Rain = 0
KMC1 161803Z 09006KT 30/14 A3003 RMK A01 T03030143  RH  038%=      5-min Rain = 0
KMC1 161804Z 10004KT 30/14 A3003 RMK A01 T03010135  RH  036%=      5-min Rain = 0
KMC1 161805Z 11006KT 30/14 A3003 RMK A01 T02990135  RH  037%=      5-min Rain = 0
KMC1 161806Z 07005KT 30/14 A3003 RMK A01 T02970138  RH  038%=      5-min Rain = 0
KMC1 161807Z 07007KT 30/14 A3003 RMK A01 T02970136  RH  037%=      5-min Rain = 0
KMC1 161808Z 10007G12KT 30/14 A3003 RMK A01 T02980140  RH  038%=      5-min Rain = 0
KMC1 161809Z 10008KT 30/13 A3003 RMK A01 T02990134  RH  036%=      5-min Rain = 0
KMC1 161810Z 11006KT 30/13 A3003 RMK A01 T02970134  RH  037%=      5-min Rain = 0
KMC1 161811Z 10008KT 30/14 A3003 RMK A01 T02970142  RH  039%=      5-min Rain = 0
KMC1 161812Z 09005KT 30/14 A3003 RMK A01 T03000138  RH  037%=      5-min Rain = 0
KMC1 161813Z 08005KT 30/14 A3003 RMK A01 T03020138  RH  037%=      5-min Rain = 0
KMC1 161814Z 11006KT 30/13 A3003 RMK A01 T03030132  RH  035%=      5-min Rain = 0
KMC1 161815Z 13005KT 30/13 A3003 RMK A01 T03020128  RH  034%=      5-min Rain = 0
KMC1 161816Z 14003KT 30/13 A3003 RMK A01 T02990130  RH  036%=      5-min Rain = 0
KMC1 161817Z 13002KT 30/14 A3003 RMK A01 T02970139  RH  038%=      5-min Rain = 0
KMC1 161818Z 06003KT 30/14 A3003 RMK A01 T02990138  RH  037%=      5-min Rain = 0
KMC1 161819Z 06004KT 30/14 A3002 RMK A01 T03000137  RH  037%=      5-min Rain = 0
KMC1 161820Z 06003KT 30/14 A3002 RMK A01 T03000144  RH  039%=      5-min Rain = 0
KMC1 161821Z 07002KT 30/15 A3002 RMK A01 T03030149  RH  039%=      5-min Rain = 0
KMC1 161822Z 06005KT 31/15 A3002 RMK A01 T03060150  RH  039%=      5-min Rain = 0
KMC1 161823Z 06006KT 31/14 A3002 RMK A01 T03090144  RH  037%=      5-min Rain = 0
KMC1 161824Z 06005KT 31/14 A3002 RMK A01 T03070143  RH  037%=      5-min Rain = 0
KMC1 161825Z 07003KT 31/15 A3002 RMK A01 T03050146  RH  038%=      5-min Rain = 0
KMC1 161826Z 07005KT 31/15 A3002 RMK A01 T03050150  RH  039%=      5-min Rain = 0
KMC1 161827Z 08003KT 31/15 A3002 RMK A01 T03050145  RH  038%=      5-min Rain = 0
KMC1 161828Z 09004KT 31/15 A3002 RMK A01 T03060151  RH  039%=      5-min Rain = 0
KMC1 161829Z 09006KT 31/14 A3002 RMK A01 T03090142  RH  036%=      5-min Rain = 0
KMC1 161830Z 10005KT 31/14 A3002 RMK A01 T03080141  RH  036%=      5-min Rain = 0
KMC1 161831Z 05005KT 31/15 A3002 RMK A01 T03070145  RH  037%=      5-min Rain = 0
KMC1 161832Z 06004KT 30/14 A3002 RMK A01 T03040139  RH  037%=      5-min Rain = 0
KMC1 161833Z 10006KT 30/14 A3002 RMK A01 T03010139  RH  037%=      5-min Rain = 0
KMC1 161834Z 09004KT 30/14 A3002 RMK A01 T03010144  RH  038%=      5-min Rain = 0
KMC1 161835Z 12003KT 30/14 A3002 RMK A01 T03040141  RH  037%=      5-min Rain = 0
KMC1 161836Z 12002KT 31/13 A3002 RMK A01 T03060133  RH  035%=      5-min Rain = 0
KMC1 161837Z 11002KT 31/13 A3002 RMK A01 T03060134  RH  035%=      5-min Rain = 0
KMC1 161838Z 11005KT 31/14 A3002 RMK A01 T03050139  RH  036%=      5-min Rain = 0
KMC1 161839Z 10007KT 31/13 A3002 RMK A01 T03060134  RH  035%=      5-min Rain = 0
KMC1 161840Z 11007KT 30/13 A3001 RMK A01 T03040132  RH  035%=      5-min Rain = 0
KMC1 161841Z 12007KT 30/13 A3001 RMK A01 T03020132  RH  035%=      5-min Rain = 0
KMC1 161842Z 12003KT 30/13 A3001 RMK A01 T03020128  RH  034%=      5-min Rain = 0
KMC1 161843Z 14003KT 30/14 A3001 RMK A01 T03010136  RH  036%=      5-min Rain = 0
KMC1 161844Z 12007KT 30/14 A3001 RMK A01 T03020135  RH  036%=      5-min Rain = 0
KMC1 161845Z 09004KT 31/14 A3001 RMK A01 T03050136  RH  036%=      5-min Rain = 0
KMC1 161846Z 11003KT 31/14 A3001 RMK A01 T03080137  RH  035%=      5-min Rain = 0
KMC1 161847Z 10006KT 31/14 A3001 RMK A01 T03090135  RH  035%=      5-min Rain = 0
KMC1 161848Z 12006KT 31/13 A3001 RMK A01 T03090134  RH  035%=      5-min Rain = 0
KMC1 161849Z 13008KT 31/14 A3001 RMK A01 T03090138  RH  035%=      5-min Rain = 0
KMC1 161850Z 15008KT 31/14 A3001 RMK A01 T03100138  RH  035%=      5-min Rain = 0
KMC1 161851Z 15008KT 31/13 A3001 RMK A01 T03110133  RH  034%=      5-min Rain = 0
KMC1 161852Z 15004KT 31/14 A3001 RMK A01 T03110136  RH  034%=      5-min Rain = 0
KMC1 161853Z 12006KT 31/14 A3001 RMK A01 T03110139  RH  035%=      5-min Rain = 0
KMC1 161854Z 16005KT 31/13 A3001 RMK A01 T03110131  RH  033%=      5-min Rain = 0
KMC1 161855Z 13003KT 31/13 A3001 RMK A01 T03090130  RH  034%=      5-min Rain = 0
KMC1 161856Z 11004KT 31/13 A3001 RMK A01 T03080131  RH  034%=      5-min Rain = 0
KMC1 161857Z 13006KT 31/13 A30 RMK A01 T03080127  RH  033%=      5-min Rain = 0
KMC1 161858Z 13007KT 31/14 A30 RMK A01 T03090135  RH  035%=      5-min Rain = 0
KMC1 161859Z 14007KT 31/13 A30 RMK A01 T03100130  RH  033%=      5-min Rain = 0
KMC1 161900Z 12007KT 31/13 A30 RMK A01 T03100134  RH  034%=      5-min Rain = 0
KMC1 161901Z 13007KT 31/14 A30 RMK A01 T03100139  RH  035%=      5-min Rain = 0
KMC1 161902Z 12006KT 31/14 A30 RMK A01 T03110135  RH  034%=      5-min Rain = 0
KMC1 161903Z 12003KT 31/13 A30 RMK A01 T03110133  RH  034%=      5-min Rain = 0
KMC1 161904Z 17003KT 31/13 A30 RMK A01 T03090134  RH  034%=      5-min Rain = 0
KMC1 161905Z 15002KT 31/13 A30 RMK A01 T03080131  RH  034%=      5-min Rain = 0
KMC1 161906Z 09002KT 31/13 A30 RMK A01 T03080133  RH  034%=      5-min Rain = 0
KMC1 161907Z 11006KT 31/14 A30 RMK A01 T03090139  RH  035%=      5-min Rain = 0
KMC1 161908Z 08007KT 31/14 A30 RMK A01 T03130136  RH  034%=      5-min Rain = 0
KMC1 161909Z 09006KT 32/14 A30 RMK A01 T03160138  RH  034%=      5-min Rain = 0
KMC1 161910Z 09010KT 32/14 A30 RMK A01 T03190140  RH  034%=      5-min Rain = 0
KMC1 161911Z 10006KT 32/14 A30 RMK A01 T03200143  RH  034%=      5-min Rain = 0
KMC1 161912Z 09007KT 32/14 A30 RMK A01 T03200142  RH  034%=      5-min Rain = 0
KMC1 161913Z 07006KT 32/13 A30 RMK A01 T03210130  RH  031%=      5-min Rain = 0
KMC1 161914Z 08006KT 32/13 A30 RMK A01 T03180131  RH  032%=      5-min Rain = 0
KMC1 161915Z 07004KT 32/13 A30 RMK A01 T03160134  RH  033%=      5-min Rain = 0
KMC1 161916Z 08005KT 32/13 A30 RMK A01 T03160134  RH  033%=      5-min Rain = 0
KMC1 161917Z 11006KT 32/14 A30 RMK A01 T03160139  RH  034%=      5-min Rain = 0
KMC1 161918Z 11009KT 32/14 A30 RMK A01 T03160144  RH  035%=      5-min Rain = 0
KMC1 161919Z 10007KT 32/14 A30 RMK A01 T03170137  RH  033%=      5-min Rain = 0
KMC1 161920Z 12004KT 31/13 A30 RMK A01 T03130132  RH  033%=      5-min Rain = 0
KMC1 161921Z 11007KT 31/14 A30 RMK A01 T03110140  RH  035%=      5-min Rain = 0
KMC1 161922Z 10005KT 31/13 A30 RMK A01 T03120132  RH  033%=      5-min Rain = 0
KMC1 161923Z 09004KT 31/13 A30 RMK A01 T03120128  RH  032%=      5-min Rain = 0
KMC1 161924Z 10003KT 31/13 A30 RMK A01 T03110132  RH  034%=      5-min Rain = 0
KMC1 161925Z 05002KT 31/14 A30 RMK A01 T03110140  RH  035%=      5-min Rain = 0
KMC1 161926Z 08001KT 31/14 A30 RMK A01 T03130140  RH  035%=      5-min Rain = 0
KMC1 161927Z 05003KT 32/14 A2999 RMK A01 T03150139  RH  034%=      5-min Rain = 0
KMC1 161928Z 04005KT 32/13 A2999 RMK A01 T03150134  RH  033%=      5-min Rain = 0
KMC1 161929Z 09004KT 31/14 A2999 RMK A01 T03140140  RH  035%=      5-min Rain = 0
KMC1 161930Z 11002KT 32/13 A2999 RMK A01 T03150132  RH  033%=      5-min Rain = 0
KMC1 161931Z 15005KT 31/14 A2999 RMK A01 T03140135  RH  034%=      5-min Rain = 0
KMC1 161932Z 13003KT 32/13 A2999 RMK A01 T03160133  RH  033%=      5-min Rain = 0
KMC1 161933Z 14005KT 32/13 A2999 RMK A01 T03180132  RH  032%=      5-min Rain = 0
KMC1 161934Z 12005KT 32/13 A2999 RMK A01 T03200132  RH  032%=      5-min Rain = 0
KMC1 161935Z 13005KT 32/13 A2999 RMK A01 T03200131  RH  032%=      5-min Rain = 0
KMC1 161936Z 14007KT 32/13 A2999 RMK A01 T03200133  RH  032%=      5-min Rain = 0
KMC1 161937Z 14007KT 32/13 A2999 RMK A01 T03210129  RH  031%=      5-min Rain = 0
KMC1 161938Z 13006KT 32/13 A2999 RMK A01 T03210129  RH  031%=      5-min Rain = 0
KMC1 161939Z 11008KT 32/14 A2999 RMK A01 T03210135  RH  032%=      5-min Rain = 0
KMC1 161940Z 11005KT 32/13 A2999 RMK A01 T03210126  RH  030%=      5-min Rain = 0
KMC1 161941Z 14005KT 32/13 A2999 RMK A01 T03180129  RH  032%=      5-min Rain = 0
KMC1 161942Z 11008KT 32/13 A2999 RMK A01 T03180128  RH  031%=      5-min Rain = 0
KMC1 161943Z 15005KT 32/13 A2999 RMK A01 T03180125  RH  031%=      5-min Rain = 0
KMC1 161944Z 11004KT 32/13 A2999 RMK A01 T03160129  RH  032%=      5-min Rain = 0
KMC1 161945Z 12004KT 32/13 A2999 RMK A01 T03170132  RH  032%=      5-min Rain = 0
KMC1 161946Z 09009KT 32/13 A2999 RMK A01 T03200134  RH  032%=      5-min Rain = 0
KMC1 161947Z 11007KT 32/13 A2999 RMK A01 T03220130  RH  031%=      5-min Rain = 0
KMC1 161948Z 13010KT 32/13 A2999 RMK A01 T03240127  RH  030%=      5-min Rain = 0
KMC1 161949Z 11010KT 32/13 A2999 RMK A01 T03220126  RH  030%=      5-min Rain = 0
KMC1 161950Z 11008KT 32/12 A2999 RMK A01 T03190124  RH  031%=      5-min Rain = 0
KMC1 161951Z 10006KT 32/13 A2999 RMK A01 T03170130  RH  032%=      5-min Rain = 0
KMC1 161952Z 09005KT 32/13 A2999 RMK A01 T03180125  RH  031%=      5-min Rain = 0
KMC1 161953Z 10004KT 32/13 A2998 RMK A01 T03180128  RH  031%=      5-min Rain = 0
KMC1 161954Z 13005KT 32/13 A2998 RMK A01 T03170133  RH  033%=      5-min Rain = 0
KMC1 161955Z 14006KT 32/14 A2998 RMK A01 T03190139  RH  033%=      5-min Rain = 0
KMC1 161956Z 13008KT 32/14 A2998 RMK A01 T03220135  RH  032%=      5-min Rain = 0
KMC1 161957Z 14004KT 32/14 A2998 RMK A01 T03230139  RH  033%=      5-min Rain = 0
KMC1 161958Z 16006KT 33/14 A2998 RMK A01 T03250139  RH  032%=      5-min Rain = 0
KMC1 161959Z 14005KT 33/14 A2998 RMK A01 T03280140  RH  032%=      5-min Rain = 0
KMC1 162000Z 14006KT 33/14 A2998 RMK A01 T03310138  RH  031%=      5-min Rain = 0
KMC1 162001Z 11008G13KT 33/13 A2998 RMK A01 T03320134  RH  030%=      5-min Rain = 0
KMC1 162002Z 11008KT 33/13 A2998 RMK A01 T03290125  RH  029%=      5-min Rain = 0
KMC1 162003Z 08006KT 33/13 A2998 RMK A01 T03260129  RH  030%=      5-min Rain = 0
KMC1 162004Z 07006KT 33/13 A2998 RMK A01 T03250130  RH  030%=      5-min Rain = 0
KMC1 162005Z 09006KT 33/13 A2998 RMK A01 T03270131  RH  030%=      5-min Rain = 0
KMC1 162006Z 09006KT 33/12 A2998 RMK A01 T03280123  RH  029%=      5-min Rain = 0
KMC1 162007Z 09004KT 33/13 A2998 RMK A01 T03260130  RH  030%=      5-min Rain = 0
KMC1 162008Z 10008G14KT 33/14 A2998 RMK A01 T03260138  RH  032%=      5-min Rain = 0
KMC1 162009Z 10008KT 33/14 A2998 RMK A01 T03290141  RH  032%=      5-min Rain = 0
KMC1 162010Z 10007KT 33/14 A2998 RMK A01 T03310143  RH  032%=      5-min Rain = 0
KMC1 162011Z 09008KT 33/14 A2997 RMK A01 T03340143  RH  032%=      5-min Rain = 0
KMC1 162012Z 10010KT 34/14 A2997 RMK A01 T03350137  RH  030%=      5-min Rain = 0
KMC1 162013Z 09006KT 33/14 A2997 RMK A01 T03330137  RH  031%=      5-min Rain = 0
KMC1 162014Z 10003G8KT 33/14 A2997 RMK A01 T03310137  RH  031%=      5-min Rain = 0
KMC1 162015Z 10008KT 33/13 A2997 RMK A01 T03300132  RH  030%=      5-min Rain = 0
KMC1 162016Z 10007KT 33/13 A2997 RMK A01 T03280132  RH  031%=      5-min Rain = 0
KMC1 162017Z 10005KT 33/13 A2997 RMK A01 T03270133  RH  031%=      5-min Rain = 0
KMC1 162018Z 08006KT 33/13 A2997 RMK A01 T03280134  RH  031%=      5-min Rain = 0
KMC1 162019Z 10005KT 33/14 A2997 RMK A01 T03300136  RH  031%=      5-min Rain = 0
KMC1 162020Z 11006G14KT 33/14 A2997 RMK A01 T03320139  RH  031%=      5-min Rain = 0
KMC1 162021Z 13010KT 33/14 A2997 RMK A01 T03330138  RH  031%=      5-min Rain = 0
KMC1 162022Z 13010G16KT 33/14 A2997 RMK A01 T03330139  RH  031%=      5-min Rain = 0
KMC1 162023Z 12007KT 33/14 A2997 RMK A01 T03310135  RH  031%=      5-min Rain = 0
KMC1 162024Z 12009KT 33/14 A2997 RMK A01 T03290135  RH  031%=      5-min Rain = 0
KMC1 162025Z 12011KT 33/13 A2997 RMK A01 T03280134  RH  031%=      5-min Rain = 0
KMC1 162026Z 13006KT 33/14 A2997 RMK A01 T03260135  RH  031%=      5-min Rain = 0
KMC1 162027Z 08007KT 33/14 A2997 RMK A01 T03270140  RH  032%=      5-min Rain = 0
KMC1 162028Z 09007KT 33/13 A2997 RMK A01 T03300133  RH  030%=      5-min Rain = 0
KMC1 162029Z 09004KT 33/13 A2997 RMK A01 T03300130  RH  030%=      5-min Rain = 0
KMC1 162030Z 11010KT 33/13 A2997 RMK A01 T03280134  RH  031%=      5-min Rain = 0
KMC1 162031Z 10008KT 33/14 A2997 RMK A01 T03270138  RH  032%=      5-min Rain = 0
KMC1 162032Z 09007KT 33/15 A2997 RMK A01 T03280145  RH  033%=      5-min Rain = 0
KMC1 162033Z 10004KT 33/15 A2997 RMK A01 T03320146  RH  033%=      5-min Rain = 0
KMC1 162034Z 12008KT 34/15 A2997 RMK A01 T03350147  RH  032%=      5-min Rain = 0
KMC1 162035Z 12007KT 34/15 A2997 RMK A01 T03370146  RH  032%=      5-min Rain = 0
KMC1 162036Z 15006KT 34/15 A2996 RMK A01 T03360147  RH  032%=      5-min Rain = 0
KMC1 162037Z 16005KT 33/14 A2996 RMK A01 T03340142  RH  031%=      5-min Rain = 0
KMC1 162038Z 14006KT 33/15 A2996 RMK A01 T03310145  RH  032%=      5-min Rain = 0
KMC1 162039Z 12006KT 33/14 A2996 RMK A01 T03300139  RH  032%=      5-min Rain = 0
KMC1 162040Z 10009KT 33/14 A2996 RMK A01 T03280141  RH  032%=      5-min Rain = 0
KMC1 162041Z 09007KT 33/14 A2996 RMK A01 T03270139  RH  032%=      5-min Rain = 0
KMC1 162042Z 07006KT 33/14 A2996 RMK A01 T03260137  RH  032%=      5-min Rain = 0
KMC1 162043Z 10005KT 33/14 A2996 RMK A01 T03250139  RH  033%=      5-min Rain = 0
KMC1 162044Z 08009KT 33/14 A2996 RMK A01 T03260143  RH  033%=      5-min Rain = 0
KMC1 162045Z 10008G13KT 33/15 A2996 RMK A01 T03290145  RH  033%=      5-min Rain = 0
KMC1 162046Z 11011KT 33/14 A2996 RMK A01 T03310139  RH  031%=      5-min Rain = 0
KMC1 162047Z 13009KT 33/14 A2996 RMK A01 T03280140  RH  032%=      5-min Rain = 0
KMC1 162048Z 14006KT 33/14 A2996 RMK A01 T03280140  RH  032%=      5-min Rain = 0
KMC1 162049Z 14009KT 33/14 A2996 RMK A01 T03290142  RH  032%=      5-min Rain = 0
KMC1 162050Z 14006KT 33/14 A2996 RMK A01 T03310144  RH  032%=      5-min Rain = 0
KMC1 162051Z 14007KT 33/14 A2996 RMK A01 T03310141  RH  032%=      5-min Rain = 0
KMC1 162052Z 12008KT 33/15 A2996 RMK A01 T03320147  RH  033%=      5-min Rain = 0
KMC1 162053Z 10007KT 34/15 A2996 RMK A01 T03350147  RH  032%=      5-min Rain = 0
KMC1 162054Z 08007KT 34/15 A2996 RMK A01 T03360145  RH  032%=      5-min Rain = 0
KMC1 162055Z 09008KT 34/15 A2995 RMK A01 T03360151  RH  033%=      5-min Rain = 0
KMC1 162056Z 11009KT 34/15 A2996 RMK A01 T03370147  RH  032%=      5-min Rain = 0
KMC1 162057Z 13007KT 34/14 A2996 RMK A01 T03370143  RH  031%=      5-min Rain = 0
KMC1 162058Z 15005KT 33/14 A2995 RMK A01 T03320142  RH  032%=      5-min Rain = 0
KMC1 162059Z 12004KT 33/15 A2995 RMK A01 T03310146  RH  033%=      5-min Rain = 0
KMC1 162100Z 08004KT 33/15 A2995 RMK A01 T03330150  RH  033%=      5-min Rain = 0
KMC1 162101Z 06004KT 34/15 A2995 RMK A01 T03370146  RH  032%=      5-min Rain = 0
KMC1 162102Z 12003KT 34/14 A2995 RMK A01 T03380140  RH  030%=      5-min Rain = 0
KMC1 162103Z 09005KT 34/14 A2995 RMK A01 T03350140  RH  031%=      5-min Rain = 0
KMC1 162104Z 10009KT 34/15 A2995 RMK A01 T03350146  RH  032%=      5-min Rain = 0
KMC1 162105Z 09010KT 34/15 A2995 RMK A01 T03370147  RH  032%=      5-min Rain = 0
KMC1 162106Z 11011KT 34/15 A2995 RMK A01 T03390147  RH  032%=      5-min Rain = 0
KMC1 162107Z 13011KT 34/15 A2995 RMK A01 T03400145  RH  031%=      5-min Rain = 0
KMC1 162108Z 13008KT 34/15 A2995 RMK A01 T03370145  RH  032%=      5-min Rain = 0
KMC1 162109Z 12008KT 34/15 A2995 RMK A01 T03370145  RH  032%=      5-min Rain = 0
KMC1 162110Z 11007KT 34/14 A2995 RMK A01 T03370143  RH  031%=      5-min Rain = 0
KMC1 162111Z 12005KT 34/14 A2995 RMK A01 T03360142  RH  031%=      5-min Rain = 0
KMC1 162112Z 12003KT 34/14 A2995 RMK A01 T03350140  RH  031%=      5-min Rain = 0
KMC1 162113Z 13002KT 33/14 A2995 RMK A01 T03340137  RH  030%=      5-min Rain = 0
KMC1 162114Z 12004KT 33/14 A2995 RMK A01 T03340141  RH  031%=      5-min Rain = 0
KMC1 162115Z 13005KT 33/14 A2994 RMK A01 T03340141  RH  031%=      5-min Rain = 0
KMC1 162116Z 09002KT 34/15 A2994 RMK A01 T03350149  RH  033%=      5-min Rain = 0
KMC1 162117Z 10006KT 34/15 A2994 RMK A01 T03380146  RH  032%=      5-min Rain = 0
KMC1 162118Z 13004KT 34/15 A2994 RMK A01 T03390147  RH  032%=      5-min Rain = 0
KMC1 162119Z 14003KT 34/15 A2994 RMK A01 T03410151  RH  032%=      5-min Rain = 0
KMC1 162120Z 17003KT 34/15 A2994 RMK A01 T03430148  RH  031%=      5-min Rain = 0
KMC1 162121Z 10006KT 34/15 A2994 RMK A01 T03430150  RH  031%=      5-min Rain = 0
KMC1 162122Z 09009KT 34/14 A2994 RMK A01 T03430143  RH  030%=      5-min Rain = 0
KMC1 162123Z 11010KT 34/14 A2994 RMK A01 T03400142  RH  030%=      5-min Rain = 0
KMC1 162124Z 10012KT 34/14 A2994 RMK A01 T03380138  RH  030%=      5-min Rain = 0
KMC1 162125Z 10008KT 33/14 A2994 RMK A01 T03340138  RH  031%=      5-min Rain = 0
KMC1 162126Z 13007KT 34/15 A2994 RMK A01 T03350145  RH  032%=      5-min Rain = 0
KMC1 162127Z 12008KT 34/15 A2994 RMK A01 T03390147  RH  032%=      5-min Rain = 0
KMC1 162128Z 14009KT 34/15 A2994 RMK A01 T03390145  RH  031%=      5-min Rain = 0
KMC1 162129Z 13009KT 34/14 A2994 RMK A01 T03370144  RH  031%=      5-min Rain = 0
KMC1 162130Z 12006KT 34/14 A2994 RMK A01 T03350141  RH  031%=      5-min Rain = 0
KMC1 162131Z 13002KT 33/15 A2994 RMK A01 T03330148  RH  033%=      5-min Rain = 0
KMC1 162132Z 16005KT 34/15 A2994 RMK A01 T03350146  RH  032%=      5-min Rain = 0
KMC1 162133Z 12004KT 34/15 A2994 RMK A01 T03360149  RH  032%=      5-min Rain = 0
KMC1 162134Z 14003KT 34/15 A2993 RMK A01 T03390150  RH  032%=      5-min Rain = 0
KMC1 162135Z 11009G14KT 34/15 A2993 RMK A01 T03420151  RH  032%=      5-min Rain = 0
KMC1 162136Z 11010KT 34/15 A2993 RMK A01 T03430146  RH  031%=      5-min Rain = 0
KMC1 162137Z 10007KT 34/15 A2993 RMK A01 T03400146  RH  031%=      5-min Rain = 0
KMC1 162138Z 10010KT 34/15 A2993 RMK A01 T03400147  RH  031%=      5-min Rain = 0
KMC1 162139Z 10008KT 34/14 A2993 RMK A01 T03390143  RH  031%=      5-min Rain = 0
KMC1 162140Z 10003KT 34/14 A2993 RMK A01 T03370142  RH  031%=      5-min Rain = 0
KMC1 162141Z 09004KT 34/15 A2993 RMK A01 T03360145  RH  032%=      5-min Rain = 0
KMC1 162142Z 13008KT 34/15 A2993 RMK A01 T03370147  RH  032%=      5-min Rain = 0
KMC1 162143Z 11009KT 34/15 A2993 RMK A01 T03390145  RH  031%=      5-min Rain = 0
KMC1 162144Z 11009KT 34/15 A2993 RMK A01 T03390145  RH  031%=      5-min Rain = 0
KMC1 162145Z 13008KT 34/14 A2993 RMK A01 T03390144  RH  031%=      5-min Rain = 0
KMC1 162146Z 10005KT 34/15 A2993 RMK A01 T03380148  RH  032%=      5-min Rain = 0
KMC1 162147Z 10006KT 34/15 A2993 RMK A01 T03410149  RH  032%=      5-min Rain = 0
KMC1 162148Z 11004KT 34/15 A2993 RMK A01 T03420145  RH  031%=      5-min Rain = 0
KMC1 162149Z 10006KT 34/15 A2993 RMK A01 T03420151  RH  032%=      5-min Rain = 0
KMC1 162150Z 10007KT 35/15 A2993 RMK A01 T03450146  RH  030%=      5-min Rain = 0
KMC1 162151Z 12008KT 34/15 A2993 RMK A01 T03440147  RH  031%=      5-min Rain = 0
KMC1 162152Z 12006KT 34/14 A2993 RMK A01 T03420142  RH  030%=      5-min Rain = 0
KMC1 162153Z 11004KT 34/14 A2993 RMK A01 T03380142  RH  031%=      5-min Rain = 0
KMC1 162154Z 10007KT 34/14 A2993 RMK A01 T03380144  RH  031%=      5-min Rain = 0
KMC1 162155Z 11006KT 34/14 A2993 RMK A01 T03390144  RH  031%=      5-min Rain = 0
KMC1 162156Z 10008KT 34/15 A2993 RMK A01 T03410147  RH  031%=      5-min Rain = 0
KMC1 162157Z 11010G15KT 34/14 A2993 RMK A01 T03430143  RH  030%=      5-min Rain = 0
KMC1 162158Z 12006KT 34/14 A2993 RMK A01 T03400139  RH  030%=      5-min Rain = 0
KMC1 162159Z 08005KT 34/14 A2993 RMK A01 T03380142  RH  031%=      5-min Rain = 0
KMC1 162200Z 10007G12KT 34/14 A2992 RMK A01 T03390144  RH  031%=      5-min Rain = 0
KMC1 162201Z 11008KT 34/15 A2992 RMK A01 T03410146  RH  031%=      5-min Rain = 0
KMC1 162202Z 12008KT 34/14 A2992 RMK A01 T03430141  RH  030%=      5-min Rain = 0
KMC1 162203Z 12007KT 34/14 A2992 RMK A01 T03400140  RH  030%=      5-min Rain = 0
KMC1 162204Z 08005KT 34/14 A2992 RMK A01 T03370142  RH  031%=      5-min Rain = 0
KMC1 162205Z 09008KT 34/14 A2992 RMK A01 T03380144  RH  031%=      5-min Rain = 0
KMC1 162206Z 10009KT 34/14 A2992 RMK A01 T03410142  RH  030%=      5-min Rain = 0
KMC1 162207Z 10008G13KT 34/14 A2992 RMK A01 T03410142  RH  030%=      5-min Rain = 0
KMC1 162208Z 09012KT 34/14 A2992 RMK A01 T03400142  RH  030%=      5-min Rain = 0
KMC1 162209Z 08009G14KT 34/14 A2992 RMK A01 T03410140  RH  030%=      5-min Rain = 0
KMC1 162210Z 08010G15KT 34/14 A2992 RMK A01 T03410140  RH  030%=      5-min Rain = 0
KMC1 162211Z 09008KT 34/14 A2992 RMK A01 T03410140  RH  030%=      5-min Rain = 0
KMC1 162212Z 10008KT 34/14 A2992 RMK A01 T03410137  RH  029%=      5-min Rain = 0
KMC1 162213Z 09005KT 34/14 A2992 RMK A01 T03400139  RH  030%=      5-min Rain = 0
KMC1 162214Z 09011G16KT 34/14 A2992 RMK A01 T03400139  RH  030%=      5-min Rain = 0
KMC1 162215Z 08008KT 34/14 A2992 RMK A01 T03400136  RH  029%=      5-min Rain = 0
KMC1 162216Z 09008KT 34/14 A2992 RMK A01 T03400135  RH  029%=      5-min Rain = 0
KMC1 162217Z 09010KT 34/14 A2992 RMK A01 T03390136  RH  029%=      5-min Rain = 0
KMC1 162218Z 08012KT 34/13 A2992 RMK A01 T03380134  RH  029%=      5-min Rain = 0
KMC1 162219Z 07010KT 34/14 A2992 RMK A01 T03380135  RH  029%=      5-min Rain = 0
KMC1 162220Z 07009G14KT 34/13 A2992 RMK A01 T03380134  RH  029%=      5-min Rain = 0
KMC1 162221Z 08011KT 34/14 A2992 RMK A01 T03390136  RH  029%=      5-min Rain = 0
KMC1 162222Z 11008KT 34/14 A2992 RMK A01 T03390135  RH  029%=      5-min Rain = 0
KMC1 162223Z 12008KT 34/14 A2992 RMK A01 T03380138  RH  030%=      5-min Rain = 0
KMC1 162224Z 09007KT 34/14 A2992 RMK A01 T03380135  RH  029%=      5-min Rain = 0
KMC1 162225Z 09008KT 34/14 A2992 RMK A01 T03380135  RH  029%=      5-min Rain = 0
KMC1 162226Z 08008KT 34/14 A2992 RMK A01 T03390135  RH  029%=      5-min Rain = 0
KMC1 162227Z 07007G12KT 34/14 A2992 RMK A01 T03390137  RH  030%=      5-min Rain = 0
KMC1 162228Z 10008KT 34/14 A2992 RMK A01 T03400136  RH  029%=      5-min Rain = 0
KMC1 162229Z 08009KT 34/14 A2992 RMK A01 T03400136  RH  029%=      5-min Rain = 0
KMC1 162230Z 10009G14KT 34/14 A2992 RMK A01 T03410137  RH  029%=      5-min Rain = 0
KMC1 162231Z 12011KT 34/13 A2992 RMK A01 T03410134  RH  029%=      5-min Rain = 0
KMC1 162232Z 12011KT 34/13 A2992 RMK A01 T03370133  RH  029%=      5-min Rain = 0
KMC1 162233Z 11011KT 34/14 A2992 RMK A01 T03350135  RH  030%=      5-min Rain = 0
KMC1 162234Z 10007KT 34/13 A2992 RMK A01 T03350134  RH  030%=      5-min Rain = 0
KMC1 162235Z 08007G12KT 34/14 A2992 RMK A01 T03350137  RH  030%=      5-min Rain = 0
KMC1 162236Z 09009KT 34/14 A2992 RMK A01 T03370138  RH  030%=      5-min Rain = 0
KMC1 162237Z 10010KT 34/14 A2992 RMK A01 T03380139  RH  030%=      5-min Rain = 0
KMC1 162238Z 10009KT 34/14 A2992 RMK A01 T03390137  RH  030%=      5-min Rain = 0
KMC1 162239Z 10008KT 34/14 A2992 RMK A01 T03390137  RH  030%=      5-min Rain = 0
KMC1 162240Z 11010KT 34/14 A2991 RMK A01 T03390136  RH  029%=      5-min Rain = 0
KMC1 162241Z 10008KT 34/14 A2991 RMK A01 T03390135  RH  029%=      5-min Rain = 0
KMC1 162242Z 11007KT 34/14 A2991 RMK A01 T03390136  RH  029%=      5-min Rain = 0
KMC1 162243Z 10014KT 34/13 A2991 RMK A01 T03400133  RH  029%=      5-min Rain = 0
KMC1 162244Z 10011KT 34/13 A2991 RMK A01 T03380134  RH  029%=      5-min Rain = 0
KMC1 162245Z 10011KT 34/13 A2991 RMK A01 T03370134  RH  029%=      5-min Rain = 0
KMC1 162246Z 10007KT 34/13 A2991 RMK A01 T03360131  RH  029%=      5-min Rain = 0
KMC1 162247Z 10011KT 34/13 A2991 RMK A01 T03350132  RH  029%=      5-min Rain = 0
KMC1 162248Z 10008KT 34/13 A2991 RMK A01 T03350131  RH  029%=      5-min Rain = 0
KMC1 162249Z 10012KT 33/13 A2991 RMK A01 T03340133  RH  030%=      5-min Rain = 0
KMC1 162250Z 10011KT 33/13 A2991 RMK A01 T03340131  RH  029%=      5-min Rain = 0
KMC1 162251Z 11010KT 33/13 A2991 RMK A01 T03320131  RH  030%=      5-min Rain = 0
KMC1 162252Z 11009KT 33/13 A2991 RMK A01 T03320132  RH  030%=      5-min Rain = 0
KMC1 162253Z 11006KT 33/14 A2991 RMK A01 T03320136  RH  031%=      5-min Rain = 0
KMC1 162254Z 10004KT 33/14 A2991 RMK A01 T03340137  RH  030%=      5-min Rain = 0
KMC1 162255Z 09007KT 34/14 A2991 RMK A01 T03360136  RH  030%=      5-min Rain = 0
KMC1 162256Z 11007KT 34/13 A2991 RMK A01 T03370134  RH  029%=      5-min Rain = 0
KMC1 162257Z 11010KT 34/14 A2991 RMK A01 T03380135  RH  029%=      5-min Rain = 0
KMC1 162258Z 11011KT 34/13 A2991 RMK A01 T03370132  RH  029%=      5-min Rain = 0
KMC1 162259Z 12010KT 34/13 A2991 RMK A01 T03350131  RH  029%=      5-min Rain = 0
KMC1 162300Z 10011KT 33/13 A2991 RMK A01 T03330129  RH  029%=      5-min Rain = 0
KMC1 162301Z 10012KT 33/13 A2991 RMK A01 T03320130  RH  029%=      5-min Rain = 0
KMC1 162302Z 09011KT 33/13 A2991 RMK A01 T03320128  RH  029%=      5-min Rain = 0
KMC1 162303Z 11009KT 33/13 A2991 RMK A01 T03320129  RH  029%=      5-min Rain = 0
KMC1 162304Z 10007KT 33/13 A2991 RMK A01 T03320129  RH  029%=      5-min Rain = 0
KMC1 162305Z 09005KT 33/13 A2991 RMK A01 T03330129  RH  029%=      5-min Rain = 0
KMC1 162306Z 08006KT 33/13 A2991 RMK A01 T03340130  RH  029%=      5-min Rain = 0
KMC1 162307Z 07008G19KT 34/13 A2991 RMK A01 T03350129  RH  029%=      5-min Rain = 0
KMC1 162308Z 09012G19KT 34/13 A2991 RMK A01 T03360127  RH  028%=      5-min Rain = 0
KMC1 162309Z 12008KT 34/13 A2991 RMK A01 T03350126  RH  028%=      5-min Rain = 0
KMC1 162310Z 10009KT 33/13 A2991 RMK A01 T03340127  RH  029%=      5-min Rain = 0
KMC1 162311Z 08009G14KT 34/13 A2991 RMK A01 T03350126  RH  028%=      5-min Rain = 0
KMC1 162312Z 08007G12KT 34/13 A2991 RMK A01 T03350125  RH  028%=      5-min Rain = 0
KMC1 162313Z 07008KT 33/13 A2991 RMK A01 T03340125  RH  028%=      5-min Rain = 0
KMC1 162314Z 08009G15KT 33/13 A2991 RMK A01 T03340128  RH  029%=      5-min Rain = 0
KMC1 162315Z 08010KT 33/13 A2991 RMK A01 T03340127  RH  028%=      5-min Rain = 0
KMC1 162316Z 09007KT 33/13 A2991 RMK A01 T03340129  RH  029%=      5-min Rain = 0
KMC1 162317Z 09009G15KT 33/13 A2991 RMK A01 T03340128  RH  029%=      5-min Rain = 0
KMC1 162318Z 10008KT 34/13 A2991 RMK A01 T03350126  RH  028%=      5-min Rain = 0
KMC1 162319Z 11013KT 34/13 A2991 RMK A01 T03350127  RH  028%=      5-min Rain = 0
KMC1 162320Z 11009KT 33/13 A2991 RMK A01 T03330129  RH  029%=      5-min Rain = 0
KMC1 162321Z 11010KT 33/13 A2991 RMK A01 T03330130  RH  029%=      5-min Rain = 0
KMC1 162322Z 12010KT 33/13 A2991 RMK A01 T03320130  RH  030%=      5-min Rain = 0
KMC1 162323Z 12009KT 33/13 A2991 RMK A01 T03310130  RH  030%=      5-min Rain = 0
KMC1 162324Z 11010KT 33/13 A2991 RMK A01 T03310131  RH  030%=      5-min Rain = 0
KMC1 162325Z 13011KT 33/13 A2991 RMK A01 T03310131  RH  030%=      5-min Rain = 0
KMC1 162326Z 13008KT 33/13 A2991 RMK A01 T03300130  RH  030%=      5-min Rain = 0
KMC1 162327Z 12007KT 33/13 A2991 RMK A01 T03290134  RH  031%=      5-min Rain = 0
KMC1 162328Z 12007KT 33/13 A2991 RMK A01 T03310131  RH  030%=      5-min Rain = 0
KMC1 162329Z 10007KT 33/13 A299 RMK A01 T03310131  RH  030%=      5-min Rain = 0
KMC1 162330Z 11009KT 33/13 A299 RMK A01 T03310131  RH  030%=      5-min Rain = 0
KMC1 162331Z 11009KT 33/13 A299 RMK A01 T03310130  RH  030%=      5-min Rain = 0
KMC1 162332Z 11008KT 33/13 A299 RMK A01 T03300131  RH  030%=      5-min Rain = 0
KMC1 162333Z 11009KT 33/13 A299 RMK A01 T03290131  RH  030%=      5-min Rain = 0
KMC1 162334Z 12009G14KT 33/13 A299 RMK A01 T03310131  RH  030%=      5-min Rain = 0
KMC1 162335Z 12009KT 33/13 A299 RMK A01 T03300132  RH  030%=      5-min Rain = 0
KMC1 162336Z 11011KT 33/13 A299 RMK A01 T03310128  RH  029%=      5-min Rain = 0
KMC1 162337Z 09009KT 33/13 A299 RMK A01 T03310127  RH  029%=      5-min Rain = 0
KMC1 162338Z 10006KT 33/13 A299 RMK A01 T03300129  RH  029%=      5-min Rain = 0
KMC1 162339Z 13008KT 33/13 A299 RMK A01 T03310127  RH  029%=      5-min Rain = 0
KMC1 162340Z 12007KT 33/13 A299 RMK A01 T03300127  RH  029%=      5-min Rain = 0
KMC1 162341Z 09007KT 33/13 A299 RMK A01 T03300129  RH  030%=      5-min Rain = 0
KMC1 162342Z 09007G12KT 33/13 A299 RMK A01 T03310130  RH  030%=      5-min Rain = 0
KMC1 162343Z 09009G16KT 33/13 A299 RMK A01 T03320132  RH  030%=      5-min Rain = 0
KMC1 162344Z 09009KT 33/13 A299 RMK A01 T03320131  RH  030%=      5-min Rain = 0
KMC1 162345Z 11008KT 33/13 A299 RMK A01 T03320133  RH  030%=      5-min Rain = 0
KMC1 162346Z 12010KT 33/13 A299 RMK A01 T03320130  RH  029%=      5-min Rain = 0
KMC1 162347Z 11009KT 33/13 A299 RMK A01 T03300127  RH  029%=      5-min Rain = 0
KMC1 162348Z 12009KT 33/13 A299 RMK A01 T03290128  RH  030%=      5-min Rain = 0
KMC1 162349Z 10006KT 33/13 A299 RMK A01 T03290128  RH  030%=      5-min Rain = 0
KMC1 162350Z 09007KT 33/13 A299 RMK A01 T03290128  RH  030%=      5-min Rain = 0
KMC1 162351Z 09008KT 33/13 A299 RMK A01 T03290128  RH  030%=      5-min Rain = 0
KMC1 162352Z 10009G14KT 33/13 A299 RMK A01 T03300125  RH  029%=      5-min Rain = 0
KMC1 162353Z 10007KT 33/12 A299 RMK A01 T03290124  RH  029%=      5-min Rain = 0
KMC1 162354Z 09007KT 33/13 A299 RMK A01 T03280127  RH  030%=      5-min Rain = 0
KMC1 162355Z 09006KT 33/13 A299 RMK A01 T03280128  RH  030%=      5-min Rain = 0
KMC1 162356Z 10008KT 33/13 A299 RMK A01 T03290127  RH  029%=      5-min Rain = 0
KMC1 162357Z 10008KT 33/13 A299 RMK A01 T03290127  RH  029%=      5-min Rain = 0
KMC1 162358Z 10007KT 33/13 A299 RMK A01 T03290128  RH  030%=      5-min Rain = 0
KMC1 162359Z 10008KT 33/13 A299 RMK A01 T03290127  RH  029%=      5-min Rain = 0
KMC1 170000Z 09008KT 33/13 A2989 RMK A01 T03280127  RH  029%=      5-min Rain = 0
KMC1 170001Z 09007KT 33/13 A2989 RMK A01 T03280127  RH  029%=      5-min Rain = 0
KMC1 170002Z 10006KT 33/13 A2989 RMK A01 T03280126  RH  029%=      5-min Rain = 0
KMC1 170003Z 12007KT 33/13 A2989 RMK A01 T03280126  RH  029%=      5-min Rain = 0
KMC1 170004Z 10005KT 33/13 A2989 RMK A01 T03270127  RH  030%=      5-min Rain = 0
KMC1 170005Z 10006KT 33/13 A2989 RMK A01 T03270127  RH  030%=      5-min Rain = 0
KMC1 170006Z 12007KT 33/13 A2989 RMK A01 T03270128  RH  030%=      5-min Rain = 0
KMC1 170007Z 11008KT 33/13 A2989 RMK A01 T03270128  RH  030%=      5-min Rain = 0
KMC1 170008Z 11009KT 33/13 A2989 RMK A01 T03260127  RH  030%=      5-min Rain = 0
KMC1 170009Z 11009KT 33/13 A2989 RMK A01 T03260127  RH  030%=      5-min Rain = 0
KMC1 170010Z 11009KT 33/13 A2989 RMK A01 T03250126  RH  030%=      5-min Rain = 0
KMC1 170011Z 11008KT 32/13 A2989 RMK A01 T03240126  RH  030%=      5-min Rain = 0
KMC1 170012Z 10010G15KT 32/12 A2989 RMK A01 T03240124  RH  030%=      5-min Rain = 0
KMC1 170013Z 10008KT 32/12 A2989 RMK A01 T03240123  RH  029%=      5-min Rain = 0
KMC1 170014Z 10010KT 32/12 A2989 RMK A01 T03240121  RH  029%=      5-min Rain = 0
KMC1 170015Z 09006KT 32/12 A2989 RMK A01 T03240123  RH  029%=      5-min Rain = 0
KMC1 170016Z 09009KT 32/12 A2989 RMK A01 T03240123  RH  029%=      5-min Rain = 0
KMC1 170017Z 09008KT 32/12 A2989 RMK A01 T03240121  RH  029%=      5-min Rain = 0
KMC1 170018Z 09006KT 32/12 A2989 RMK A01 T03240124  RH  030%=      5-min Rain = 0
KMC1 170019Z 09008KT 32/12 A2989 RMK A01 T03240123  RH  029%=      5-min Rain = 0
KMC1 170020Z 08005KT 32/12 A2989 RMK A01 T03230124  RH  030%=      5-min Rain = 0
KMC1 170021Z 09008KT 32/12 A2989 RMK A01 T03230124  RH  030%=      5-min Rain = 0
KMC1 170022Z 09010KT 32/12 A2989 RMK A01 T03240123  RH  029%=      5-min Rain = 0
KMC1 170023Z 09010KT 32/12 A2989 RMK A01 T03240122  RH  029%=      5-min Rain = 0
KMC1 170024Z 08009KT 32/12 A2989 RMK A01 T03230123  RH  030%=      5-min Rain = 0
KMC1 170025Z 09009KT 32/12 A2989 RMK A01 T03230123  RH  030%=      5-min Rain = 0
KMC1 170026Z 09007G12KT 32/12 A2989 RMK A01 T03220123  RH  030%=      5-min Rain = 0
KMC1 170027Z 08006G11KT 32/12 A2989 RMK A01 T03220124  RH  030%=      5-min Rain = 0
KMC1 170028Z 09007KT 32/13 A2989 RMK A01 T03220125  RH  030%=      5-min Rain = 0
KMC1 170029Z 09008KT 32/13 A2989 RMK A01 T03210125  RH  030%=      5-min Rain = 0
KMC1 170030Z 09007G12KT 32/12 A2989 RMK A01 T03200123  RH  030%=      5-min Rain = 0
KMC1 170031Z 09008G14KT 32/12 A2989 RMK A01 T03180123  RH  030%=      5-min Rain = 0
KMC1 170032Z 09010KT 32/12 A2989 RMK A01 T03170121  RH  030%=      5-min Rain = 0
KMC1 170033Z 10007KT 32/12 A2989 RMK A01 T03160121  RH  030%=      5-min Rain = 0
KMC1 170034Z 10007KT 32/12 A2989 RMK A01 T03150122  RH  031%=      5-min Rain = 0
KMC1 170035Z 09005KT 31/12 A299 RMK A01 T03130123  RH  031%=      5-min Rain = 0
KMC1 170036Z 09004KT 31/12 A299 RMK A01 T03130123  RH  031%=      5-min Rain = 0
KMC1 170037Z 08007KT 31/12 A299 RMK A01 T03110122  RH  031%=      5-min Rain = 0
KMC1 170038Z 09008KT 31/12 A299 RMK A01 T03110121  RH  031%=      5-min Rain = 0
KMC1 170039Z 08006KT 31/12 A299 RMK A01 T03100122  RH  031%=      5-min Rain = 0
KMC1 170040Z 08009KT 31/12 A2989 RMK A01 T03090122  RH  032%=      5-min Rain = 0
KMC1 170041Z 09007KT 31/12 A2989 RMK A01 T03090122  RH  032%=      5-min Rain = 0
KMC1 170042Z 09007KT 31/12 A2989 RMK A01 T03080122  RH  032%=      5-min Rain = 0
KMC1 170043Z 09007KT 31/12 A2989 RMK A01 T03070121  RH  032%=      5-min Rain = 0
KMC1 170044Z 09009KT 31/12 A2989 RMK A01 T03070120  RH  032%=      5-min Rain = 0
KMC1 170045Z 08008KT 31/12 A2989 RMK A01 T03070121  RH  032%=      5-min Rain = 0
KMC1 170046Z 08006KT 31/12 A2989 RMK A01 T03060121  RH  032%=      5-min Rain = 0
KMC1 170047Z 09006KT 31/12 A2989 RMK A01 T03060123  RH  033%=      5-min Rain = 0
KMC1 170048Z 09008KT 31/12 A2989 RMK A01 T03050122  RH  032%=      5-min Rain = 0
KMC1 170049Z 09007KT 31/12 A2989 RMK A01 T03050121  RH  032%=      5-min Rain = 0
KMC1 170050Z 09007KT 30/12 A2989 RMK A01 T03040120  RH  032%=      5-min Rain = 0
KMC1 170051Z 09007KT 30/12 A2989 RMK A01 T03040120  RH  032%=      5-min Rain = 0
KMC1 170052Z 08006KT 30/12 A2989 RMK A01 T03030120  RH  032%=      5-min Rain = 0
KMC1 170053Z 08005KT 30/12 A2989 RMK A01 T03030122  RH  033%=      5-min Rain = 0
KMC1 170054Z 09006KT 30/12 A2989 RMK A01 T03020122  RH  033%=      5-min Rain = 0
KMC1 170055Z 08007KT 30/12 A2989 RMK A01 T03010122  RH  033%=      5-min Rain = 0
KMC1 170056Z 08006KT 30/12 A2989 RMK A01 T03010122  RH  033%=      5-min Rain = 0
KMC1 170057Z 09006KT 30/12 A2989 RMK A01 T03000123  RH  034%=      5-min Rain = 0
KMC1 170058Z 09007KT 30/12 A2989 RMK A01 T02990122  RH  033%=      5-min Rain = 0
KMC1 170059Z 08005KT 30/12 A2989 RMK A01 T02990122  RH  034%=      5-min Rain = 0
KMC1 170100Z 09005KT 30/12 A2989 RMK A01 T02990122  RH  034%=      5-min Rain = 0
KMC1 170101Z 09006KT 30/12 A2989 RMK A01 T02980124  RH  034%=      5-min Rain = 0
KMC1 170102Z 09005KT 30/12 A2989 RMK A01 T02980124  RH  034%=      5-min Rain = 0
KMC1 170103Z 08006KT 30/13 A299 RMK A01 T02970125  RH  035%=      5-min Rain = 0
KMC1 170104Z 09006KT 30/12 A299 RMK A01 T02970124  RH  035%=      5-min Rain = 0
KMC1 170105Z 09005KT 30/12 A299 RMK A01 T02960124  RH  035%=      5-min Rain = 0
KMC1 170106Z 09004KT 30/13 A299 RMK A01 T02950126  RH  035%=      5-min Rain = 0
KMC1 170107Z 09005KT 30/13 A299 RMK A01 T02950125  RH  035%=      5-min Rain = 0
KMC1 170108Z 09005KT 29/13 A299 RMK A01 T02940125  RH  035%=      5-min Rain = 0
KMC1 170109Z 09004KT 29/13 A299 RMK A01 T02940126  RH  036%=      5-min Rain = 0
KMC1 170110Z 09006KT 29/13 A299 RMK A01 T02930127  RH  036%=      5-min Rain = 0
KMC1 170111Z 09006KT 29/13 A299 RMK A01 T02930127  RH  036%=      5-min Rain = 0
KMC1 170112Z 09005KT 29/13 A299 RMK A01 T02920126  RH  036%=      5-min Rain = 0
KMC1 170113Z 09007KT 29/13 A299 RMK A01 T02910126  RH  036%=      5-min Rain = 0
KMC1 170114Z 09005KT 29/13 A299 RMK A01 T02910126  RH  036%=      5-min Rain = 0
KMC1 170115Z 09006KT 29/13 A299 RMK A01 T02910127  RH  036%=      5-min Rain = 0
KMC1 170116Z 09005KT 29/13 A299 RMK A01 T02900128  RH  037%=      5-min Rain = 0
KMC1 170117Z 08005KT 29/13 A299 RMK A01 T02900128  RH  037%=      5-min Rain = 0
KMC1 170118Z 09005KT 29/13 A299 RMK A01 T02900129  RH  037%=      5-min Rain = 0
KMC1 170119Z 08007KT 29/13 A299 RMK A01 T02890127  RH  037%=      5-min Rain = 0
KMC1 170120Z 09005KT 29/13 A299 RMK A01 T02880128  RH  037%=      5-min Rain = 0
KMC1 170121Z 09005KT 29/13 A299 RMK A01 T02880129  RH  037%=      5-min Rain = 0
KMC1 170122Z 09006KT 29/13 A299 RMK A01 T02880128  RH  037%=      5-min Rain = 0
KMC1 170123Z 09006KT 29/13 A299 RMK A01 T02870128  RH  038%=      5-min Rain = 0
KMC1 170124Z 09005KT 29/13 A299 RMK A01 T02860127  RH  037%=      5-min Rain = 0
KMC1 170125Z 09004KT 29/13 A299 RMK A01 T02860129  RH  038%=      5-min Rain = 0
KMC1 170126Z 08005KT 29/13 A2991 RMK A01 T02860128  RH  038%=      5-min Rain = 0
KMC1 170127Z 08005KT 29/13 A2991 RMK A01 T02860128  RH  038%=      5-min Rain = 0
KMC1 170128Z 08005KT 29/13 A2991 RMK A01 T02850128  RH  038%=      5-min Rain = 0
KMC1 170129Z 08004KT 29/13 A2991 RMK A01 T02850128  RH  038%=      5-min Rain = 0
KMC1 170130Z 07004KT 29/13 A2991 RMK A01 T02850128  RH  038%=      5-min Rain = 0
KMC1 170131Z 08005KT 28/13 A2991 RMK A01 T02840128  RH  038%=      5-min Rain = 0
KMC1 170132Z 07005KT 28/13 A2991 RMK A01 T02830128  RH  038%=      5-min Rain = 0
KMC1 170133Z 07005KT 28/13 A2991 RMK A01 T02830128  RH  038%=      5-min Rain = 0
KMC1 170134Z 08004KT 28/13 A2991 RMK A01 T02830129  RH  039%=      5-min Rain = 0
KMC1 170135Z 08004KT 28/13 A2991 RMK A01 T02830129  RH  039%=      5-min Rain = 0
KMC1 170136Z 08004KT 28/13 A2992 RMK A01 T02820129  RH  039%=      5-min Rain = 0
KMC1 170137Z 08005KT 28/13 A2991 RMK A01 T02810130  RH  039%=      5-min Rain = 0
KMC1 170138Z 08005KT 28/13 A2992 RMK A01 T02810128  RH  039%=      5-min Rain = 0
KMC1 170139Z 08005KT 28/13 A2992 RMK A01 T02810130  RH  039%=      5-min Rain = 0
KMC1 170140Z 08004KT 28/13 A2992 RMK A01 T02800130  RH  040%=      5-min Rain = 0
KMC1 170141Z 08005KT 28/13 A2992 RMK A01 T02800129  RH  039%=      5-min Rain = 0
KMC1 170142Z 08005KT 28/13 A2992 RMK A01 T02800130  RH  040%=      5-min Rain = 0
KMC1 170143Z 08005KT 28/13 A2992 RMK A01 T02790128  RH  039%=      5-min Rain = 0
KMC1 170144Z 08005KT 28/13 A2992 RMK A01 T02790129  RH  039%=      5-min Rain = 0
KMC1 170145Z 08004KT 28/13 A2992 RMK A01 T02790129  RH  040%=      5-min Rain = 0
KMC1 170146Z 08005KT 28/13 A2992 RMK A01 T02790130  RH  040%=      5-min Rain = 0
KMC1 170147Z 08004KT 28/13 A2992 RMK A01 T02780129  RH  040%=      5-min Rain = 0
KMC1 170148Z 08005KT 28/13 A2992 RMK A01 T02780129  RH  040%=      5-min Rain = 0
KMC1 170149Z 07004KT 28/13 A2992 RMK A01 T02780129  RH  040%=      5-min Rain = 0
KMC1 170150Z 07004KT 28/13 A2992 RMK A01 T02770131  RH  041%=      5-min Rain = 0
KMC1 170151Z 06004KT 28/13 A2992 RMK A01 T02770131  RH  041%=      5-min Rain = 0
KMC1 170152Z 07004KT 28/13 A2992 RMK A01 T02760132  RH  041%=      5-min Rain = 0
KMC1 170153Z 07004KT 28/13 A2993 RMK A01 T02760130  RH  040%=      5-min Rain = 0
KMC1 170154Z 06004KT 28/13 A2993 RMK A01 T02750129  RH  040%=      5-min Rain = 0
KMC1 170155Z 06003KT 28/13 A2993 RMK A01 T02750130  RH  041%=      5-min Rain = 0
KMC1 170156Z 05004KT 28/13 A2993 RMK A01 T02750129  RH  041%=      5-min Rain = 0
KMC1 170157Z 06004KT 28/13 A2993 RMK A01 T02750130  RH  041%=      5-min Rain = 0
KMC1 170158Z 06004KT 28/13 A2993 RMK A01 T02750131  RH  041%=      5-min Rain = 0
KMC1 170159Z 05003KT 27/13 A2993 RMK A01 T02740130  RH  041%=      5-min Rain = 0
KMC1 170200Z 06004KT 27/13 A2993 RMK A01 T02740132  RH  041%=      5-min Rain = 0
KMC1 170201Z 05004KT 27/13 A2993 RMK A01 T02740131  RH  041%=      5-min Rain = 0
KMC1 170202Z 06004KT 27/13 A2993 RMK A01 T02740132  RH  042%=      5-min Rain = 0
KMC1 170203Z 06004KT 27/13 A2993 RMK A01 T02730133  RH  042%=      5-min Rain = 0
KMC1 170204Z 06003KT 27/13 A2993 RMK A01 T02730134  RH  042%=      5-min Rain = 0
KMC1 170205Z 06004KT 27/13 A2993 RMK A01 T02720133  RH  042%=      5-min Rain = 0
KMC1 170206Z 05004KT 27/14 A2994 RMK A01 T02720135  RH  043%=      5-min Rain = 0
KMC1 170207Z 06004KT 27/14 A2994 RMK A01 T02710135  RH  043%=      5-min Rain = 0
KMC1 170208Z 07004KT 27/14 A2994 RMK A01 T02710136  RH  043%=      5-min Rain = 0
KMC1 170209Z 07003KT 27/14 A2994 RMK A01 T02710137  RH  044%=      5-min Rain = 0
KMC1 170210Z 07004KT 27/14 A2994 RMK A01 T02700136  RH  044%=      5-min Rain = 0
KMC1 170211Z 07002KT 27/14 A2994 RMK A01 T02700137  RH  044%=      5-min Rain = 0
KMC1 170212Z 06004KT 27/14 A2994 RMK A01 T02700136  RH  044%=      5-min Rain = 0
KMC1 170213Z 07003KT 27/14 A2994 RMK A01 T02690137  RH  044%=      5-min Rain = 0
KMC1 170214Z 07004KT 27/14 A2994 RMK A01 T02690137  RH  044%=      5-min Rain = 0
KMC1 170215Z 07004KT 27/14 A2994 RMK A01 T02680137  RH  044%=      5-min Rain = 0
KMC1 170216Z 07004KT 27/14 A2994 RMK A01 T02680139  RH  045%=      5-min Rain = 0
KMC1 170217Z 07005KT 27/14 A2993 RMK A01 T02680139  RH  045%=      5-min Rain = 0
KMC1 170218Z 07005KT 27/14 A2993 RMK A01 T02670137  RH  045%=      5-min Rain = 0
KMC1 170219Z 07005KT 27/14 A2993 RMK A01 T02670138  RH  045%=      5-min Rain = 0
KMC1 170220Z 07004KT 27/14 A2993 RMK A01 T02670139  RH  045%=      5-min Rain = 0
KMC1 170221Z 06004KT 27/14 A2994 RMK A01 T02670137  RH  045%=      5-min Rain = 0
KMC1 170222Z 05004KT 27/14 A2994 RMK A01 T02670137  RH  045%=      5-min Rain = 0
KMC1 170223Z 06003KT 27/14 A2994 RMK A01 T02670136  RH  045%=      5-min Rain = 0
KMC1 170224Z 05003KT 27/14 A2995 RMK A01 T02670137  RH  045%=      5-min Rain = 0
KMC1 170225Z 05003KT 27/14 A2995 RMK A01 T02670136  RH  045%=      5-min Rain = 0
KMC1 170226Z 04002KT 27/14 A2995 RMK A01 T02670137  RH  045%=      5-min Rain = 0
KMC1 170227Z 04003KT 27/14 A2995 RMK A01 T02670139  RH  045%=      5-min Rain = 0
KMC1 170228Z 04003KT 27/14 A2995 RMK A01 T02680139  RH  045%=      5-min Rain = 0
KMC1 170229Z 04004KT 27/14 A2995 RMK A01 T02670140  RH  045%=      5-min Rain = 0
KMC1 170230Z 04004KT 27/14 A2996 RMK A01 T02670140  RH  046%=      5-min Rain = 0
KMC1 170231Z 04004KT 27/14 A2996 RMK A01 T02670140  RH  046%=      5-min Rain = 0
KMC1 170232Z 04004KT 27/14 A2996 RMK A01 T02670141  RH  046%=      5-min Rain = 0
KMC1 170233Z 04004KT 27/14 A2996 RMK A01 T02670141  RH  046%=      5-min Rain = 0
KMC1 170234Z 04005KT 27/14 A2996 RMK A01 T02660143  RH  047%=      5-min Rain = 0
KMC1 170235Z 04004KT 27/14 A2996 RMK A01 T02660143  RH  047%=      5-min Rain = 0
KMC1 170236Z 04005KT 27/14 A2996 RMK A01 T02650144  RH  047%=      5-min Rain = 0
KMC1 170237Z 05005KT 27/14 A2996 RMK A01 T02650143  RH  047%=      5-min Rain = 0
KMC1 170238Z 04004KT 27/14 A2996 RMK A01 T02650144  RH  047%=      5-min Rain = 0
KMC1 170239Z 05004KT 27/14 A2996 RMK A01 T02650144  RH  047%=      5-min Rain = 0
KMC1 170240Z 05004KT 27/14 A2996 RMK A01 T02650144  RH  047%=      5-min Rain = 0
KMC1 170241Z 05004KT 26/14 A2996 RMK A01 T02640143  RH  047%=      5-min Rain = 0
KMC1 170242Z 06004KT 26/14 A2996 RMK A01 T02640143  RH  047%=      5-min Rain = 0
KMC1 170243Z 06003KT 26/14 A2996 RMK A01 T02640144  RH  047%=      5-min Rain = 0
KMC1 170244Z 06005KT 26/14 A2996 RMK A01 T02640143  RH  047%=      5-min Rain = 0
KMC1 170245Z 05004KT 26/14 A2997 RMK A01 T02640143  RH  047%=      5-min Rain = 0
KMC1 170246Z 05004KT 26/14 A2997 RMK A01 T02640140  RH  046%=      5-min Rain = 0
KMC1 170247Z 05004KT 27/14 A2997 RMK A01 T02650141  RH  046%=      5-min Rain = 0
KMC1 170248Z 04005KT 27/14 A2997 RMK A01 T02660141  RH  046%=      5-min Rain = 0
KMC1 170249Z 05003KT 27/14 A2997 RMK A01 T02660142  RH  047%=      5-min Rain = 0
KMC1 170250Z 05003KT 27/14 A2997 RMK A01 T02660142  RH  047%=      5-min Rain = 0
KMC1 170251Z 05004KT 27/14 A2997 RMK A01 T02660141  RH  046%=      5-min Rain = 0
KMC1 170252Z 05004KT 27/14 A2997 RMK A01 T02660143  RH  047%=      5-min Rain = 0
KMC1 170253Z 05004KT 27/14 A2997 RMK A01 T02660143  RH  047%=      5-min Rain = 0
KMC1 170254Z 05006KT 27/14 A2997 RMK A01 T02660144  RH  047%=      5-min Rain = 0
KMC1 170255Z 05006KT 27/15 A2997 RMK A01 T02660145  RH  047%=      5-min Rain = 0
KMC1 170256Z 05005KT 27/15 A2997 RMK A01 T02650147  RH  048%=      5-min Rain = 0
KMC1 170257Z 05006KT 27/15 A2998 RMK A01 T02650151  RH  050%=      5-min Rain = 0
KMC1 170258Z 05006KT 26/15 A2998 RMK A01 T02630153  RH  051%=      5-min Rain = 0
KMC1 170259Z 05006KT 26/16 A2998 RMK A01 T02610157  RH  053%=      5-min Rain = 0
KMC1 170300Z 05004KT 26/16 A2998 RMK A01 T02580163  RH  056%=      5-min Rain = 0
KMC1 170301Z 06005KT 26/17 A2998 RMK A01 T02550165  RH  058%=      5-min Rain = 0
KMC1 170302Z 06006KT 25/17 A2998 RMK A01 T02520166  RH  059%=      5-min Rain = 0.01
KMC1 170303Z 06006KT 25/17 A2999 RMK A01 T02490165  RH  059%=      5-min Rain = 0
KMC1 170304Z 06006KT 25/17 A2999 RMK A01 T02460169  RH  062%=      5-min Rain = 0
KMC1 170305Z 06007KT 24/17 A2999 RMK A01 T02440170  RH  063%=      5-min Rain = 0
KMC1 170306Z 07006KT 24/17 A2999 RMK A01 T02410170  RH  064%=      5-min Rain = 0
KMC1 170307Z 07006G11KT 24/17 A2999 RMK A01 T02400166  RH  064%=      5-min Rain = 0.01
KMC1 170308Z 07007G15KT 24/16 A2999 RMK A01 T02400164  RH  063%=      5-min Rain = 0
KMC1 170309Z 07006KT 24/17 A30 RMK A01 T02400167  RH  064%=      5-min Rain = 0
KMC1 170310Z 07009KT 24/16 A30 RMK A01 T02400163  RH  062%=      5-min Rain = 0.01
KMC1 170311Z 09008KT 24/16 A30 RMK A01 T02400163  RH  062%=      5-min Rain = 0.01
KMC1 170312Z 10006KT 24/17 A30 RMK A01 T02380167  RH  064%=      5-min Rain = 0.01
KMC1 170313Z 12007KT 24/17 A30 RMK A01 T02350168  RH  066%=      5-min Rain = 0.01
KMC1 170314Z 13007KT 23/17 A30 RMK A01 T02300173  RH  070%=      5-min Rain = 0.01
KMC1 170315Z 12006KT 23/17 A3001 RMK A01 T02260172  RH  071%=      5-min Rain = 0.01
KMC1 170316Z 33003G8KT 22/17 A3002 RMK A01 T02230171  RH  072%=      5-min Rain = 0
KMC1 170317Z 32012KT 22/17 A3003 RMK A01 T02220166  RH  070%=      5-min Rain = 0
KMC1 170318Z 30012KT 23/16 A3003 RMK A01 T02250155  RH  064%=      5-min Rain = 0
KMC1 170319Z 30009KT 23/16 A3003 RMK A01 T02270158  RH  065%=      5-min Rain = 0
KMC1 170320Z 27010KT 23/16 A3003 RMK A01 T02250156  RH  065%=      5-min Rain = 0.01
KMC1 170321Z 25010G15KT 22/15 A3003 RMK A01 T02230145  RH  061%=      5-min Rain = 0
KMC1 170322Z 23009KT 22/15 A3003 RMK A01 T02220145  RH  062%=      5-min Rain = 0
KMC1 170323Z 24007KT 22/15 A3003 RMK A01 T02200145  RH  063%=      5-min Rain = 0
KMC1 170324Z 26006KT 22/14 A3003 RMK A01 T02170143  RH  063%=      5-min Rain = 0
KMC1 170325Z 28003KT 22/15 A3003 RMK A01 T02160146  RH  064%=      5-min Rain = 0
KMC1 170326Z 24003KT 22/15 A3004 RMK A01 T02150146  RH  065%=      5-min Rain = 0
KMC1 170327Z 22003KT 21/15 A3004 RMK A01 T02140146  RH  065%=      5-min Rain = 0
KMC1 170328Z 14002KT 21/14 A3003 RMK A01 T02140141  RH  063%=      5-min Rain = 0
KMC1 170329Z 15003KT 21/14 A3003 RMK A01 T02140144  RH  064%=      5-min Rain = 0
KMC1 170330Z 13002KT 21/14 A3003 RMK A01 T02140142  RH  063%=      5-min Rain = 0
KMC1 170331Z 10001KT 22/14 A3003 RMK A01 T02150135  RH  060%=      5-min Rain = 0
KMC1 170332Z 33002KT 22/14 A3003 RMK A01 T02170141  RH  062%=      5-min Rain = 0
KMC1 170333Z 30006KT 22/15 A3003 RMK A01 T02180146  RH  063%=      5-min Rain = 0
KMC1 170334Z 27004KT 22/15 A3002 RMK A01 T02180152  RH  066%=      5-min Rain = 0
KMC1 170335Z 25005KT 22/15 A3002 RMK A01 T02150151  RH  067%=      5-min Rain = 0
KMC1 170336Z 22004KT 21/15 A3001 RMK A01 T02130149  RH  067%=      5-min Rain = 0
KMC1 170337Z 17005KT 21/15 A3001 RMK A01 T02120151  RH  068%=      5-min Rain = 0
KMC1 170338Z 15008KT 21/16 A3001 RMK A01 T02090158  RH  072%=      5-min Rain = 0
KMC1 170339Z 17008KT 21/16 A3001 RMK A01 T02060158  RH  074%=      5-min Rain = 0
KMC1 170340Z 16009KT 20/15 A3001 RMK A01 T02040154  RH  073%=      5-min Rain = 0
KMC1 170341Z 18009KT 21/15 A3001 RMK A01 T02050150  RH  071%=      5-min Rain = 0
KMC1 170342Z 19006KT 21/15 A3001 RMK A01 T02080149  RH  069%=      5-min Rain = 0
KMC1 170343Z 21005KT 21/15 A3001 RMK A01 T02100153  RH  070%=      5-min Rain = 0
KMC1 170344Z 22004KT 21/16 A3002 RMK A01 T02110155  RH  071%=      5-min Rain = 0
KMC1 170345Z 24004KT 21/15 A3002 RMK A01 T02100152  RH  069%=      5-min Rain = 0
KMC1 170346Z 23004KT 21/16 A3002 RMK A01 T02110158  RH  072%=      5-min Rain = 0
KMC1 170347Z 22005KT 21/16 A3002 RMK A01 T02100159  RH  072%=      5-min Rain = 0.01
KMC1 170348Z 21007KT 21/16 A3002 RMK A01 T02090155  RH  071%=      5-min Rain = 0
KMC1 170349Z 20009KT 21/16 A3002 RMK A01 T02080158  RH  073%=      5-min Rain = 0
KMC1 170350Z 20008KT 21/16 A3002 RMK A01 T02070164  RH  077%=      5-min Rain = 0
KMC1 170351Z 21008KT 20/17 A3002 RMK A01 T02040167  RH  079%=      5-min Rain = 0
KMC1 170352Z 21008KT 20/17 A3002 RMK A01 T02010169  RH  082%=      5-min Rain = 0
KMC1 170353Z 22007KT 20/17 A3002 RMK A01 T01990171  RH  084%=      5-min Rain = 0
KMC1 170354Z 21008KT 20/17 A3002 RMK A01 T01980173  RH  085%=      5-min Rain = 0
KMC1 170355Z 21008KT 20/17 A3002 RMK A01 T01970173  RH  086%=      5-min Rain = 0
KMC1 170356Z 21008KT 20/17 A3002 RMK A01 T01960172  RH  086%=      5-min Rain = 0
KMC1 170357Z 21009KT 20/17 A3002 RMK A01 T01960171  RH  086%=      5-min Rain = 0
KMC1 170358Z 21009KT 20/17 A3002 RMK A01 T01960170  RH  085%=      5-min Rain = 0
KMC1 170359Z 21009KT 20/17 A3002 RMK A01 T01960169  RH  084%=      5-min Rain = 0
KMC1 170400Z 21008KT 20/17 A3002 RMK A01 T01950168  RH  084%=      5-min Rain = 0
KMC1 170401Z 19007KT 20/17 A3001 RMK A01 T01950169  RH  085%=      5-min Rain = 0
KMC1 170402Z 18010KT 20/17 A30 RMK A01 T01950170  RH  086%=      5-min Rain = 0.01
KMC1 170403Z 17012KT 19/17 A2999 RMK A01 T01940170  RH  086%=      5-min Rain = 0
KMC1 170404Z 17013KT 19/17 A2998 RMK A01 T01930169  RH  086%=      5-min Rain = 0
KMC1 170405Z 18013KT 19/17 A2998 RMK A01 T01930166  RH  084%=      5-min Rain = 0
KMC1 170406Z 20011KT 19/16 A2998 RMK A01 T01930163  RH  083%=      5-min Rain = 0
KMC1 170407Z 20011KT 19/16 A2999 RMK A01 T01930163  RH  083%=      5-min Rain = 0
KMC1 170408Z 20011KT 19/16 A2999 RMK A01 T01940160  RH  081%=      5-min Rain = 0
KMC1 170409Z 21010KT 20/16 A2999 RMK A01 T01950161  RH  081%=      5-min Rain = 0
KMC1 170410Z 20010KT 20/16 A2999 RMK A01 T01950160  RH  080%=      5-min Rain = 0
KMC1 170411Z 19007KT 20/16 A2999 RMK A01 T01950162  RH  082%=      5-min Rain = 0
KMC1 170412Z 20008KT 19/16 A2999 RMK A01 T01930163  RH  083%=      5-min Rain = 0
KMC1 170413Z 20008KT 19/16 A2999 RMK A01 T01920164  RH  084%=      5-min Rain = 0
KMC1 170414Z 20007KT 19/16 A2999 RMK A01 T01910164  RH  084%=      5-min Rain = 0
KMC1 170415Z 21008KT 19/16 A2999 RMK A01 T01900164  RH  085%=      5-min Rain = 0
KMC1 170416Z 19008KT 19/16 A2999 RMK A01 T01900164  RH  085%=      5-min Rain = 0
KMC1 170417Z 19008KT 19/16 A2999 RMK A01 T01890163  RH  085%=      5-min Rain = 0
KMC1 170418Z 19008KT 19/16 A2999 RMK A01 T01890162  RH  084%=      5-min Rain = 0
KMC1 170419Z 19008KT 19/16 A2999 RMK A01 T01900162  RH  084%=      5-min Rain = 0
KMC1 170420Z 19008KT 19/16 A2999 RMK A01 T01900162  RH  084%=      5-min Rain = 0
KMC1 170421Z 19009KT 19/16 A2998 RMK A01 T01900162  RH  084%=      5-min Rain = 0
KMC1 170422Z 20011KT 19/16 A2999 RMK A01 T01900159  RH  082%=      5-min Rain = 0
KMC1 170423Z 21009KT 19/16 A2999 RMK A01 T01920160  RH  082%=      5-min Rain = 0
KMC1 170424Z 22009KT 19/16 A2999 RMK A01 T01920162  RH  083%=      5-min Rain = 0
KMC1 170425Z 22009KT 19/16 A2999 RMK A01 T01920162  RH  083%=      5-min Rain = 0
KMC1 170426Z 21009KT 19/16 A2999 RMK A01 T01910161  RH  083%=      5-min Rain = 0
KMC1 170427Z 20010KT 19/16 A2999 RMK A01 T01900160  RH  083%=      5-min Rain = 0
KMC1 170428Z 19012KT 19/16 A2999 RMK A01 T01910157  RH  081%=      5-min Rain = 0
KMC1 170429Z 19013G20KT 19/15 A2999 RMK A01 T01940154  RH  078%=      5-min Rain = 0
KMC1 170430Z 18017G24KT 20/15 A2998 RMK A01 T01990145  RH  071%=      5-min Rain = 0
KMC1 170431Z 18016G23KT 21/15 A2998 RMK A01 T02060145  RH  068%=      5-min Rain = 0
KMC1 170432Z 17016KT 21/15 A2997 RMK A01 T02090146  RH  067%=      5-min Rain = 0
KMC1 170433Z 16016KT 21/15 A2996 RMK A01 T02100150  RH  069%=      5-min Rain = 0
KMC1 170434Z 17019KT 21/15 A2995 RMK A01 T02070151  RH  070%=      5-min Rain = 0
KMC1 170435Z 16017KT 21/15 A2995 RMK A01 T02050152  RH  072%=      5-min Rain = 0
KMC1 170436Z 16016G24KT 20/16 A2994 RMK A01 T02030155  RH  074%=      5-min Rain = 0
KMC1 170437Z 17018G25KT 20/15 A2994 RMK A01 T02000153  RH  074%=      5-min Rain = 0
KMC1 170438Z 17014G22KT 20/15 A2994 RMK A01 T02000153  RH  074%=      5-min Rain = 0
KMC1 170439Z 16010G16KT 20/16 A2994 RMK A01 T01980157  RH  077%=      5-min Rain = 0
KMC1 170440Z 16010G18KT 20/16 A2994 RMK A01 T01960158  RH  078%=      5-min Rain = 0
KMC1 170441Z 16009G14KT 19/16 A2994 RMK A01 T01940158  RH  079%=      5-min Rain = 0
KMC1 170442Z 17004G9KT 19/16 A2994 RMK A01 T01930157  RH  080%=      5-min Rain = 0
KMC1 170443Z 18005G12KT 19/16 A2995 RMK A01 T01930158  RH  080%=      5-min Rain = 0
KMC1 170444Z 18005G12KT 19/15 A2995 RMK A01 T01920154  RH  079%=      5-min Rain = 0
KMC1 170445Z 18011G16KT 19/15 A2995 RMK A01 T01940147  RH  074%=      5-min Rain = 0
KMC1 170446Z 18007KT 20/15 A2996 RMK A01 T01990145  RH  071%=      5-min Rain = 0
KMC1 170447Z 19008KT 20/15 A2996 RMK A01 T02020146  RH  070%=      5-min Rain = 0
KMC1 170448Z 19011G17KT 20/14 A2997 RMK A01 T02040144  RH  068%=      5-min Rain = 0
KMC1 170449Z 17007KT 21/15 A2997 RMK A01 T02060145  RH  068%=      5-min Rain = 0
KMC1 170450Z 17006KT 21/15 A2997 RMK A01 T02060145  RH  068%=      5-min Rain = 0
KMC1 170451Z 19006KT 21/15 A2997 RMK A01 T02060145  RH  068%=      5-min Rain = 0
KMC1 170452Z 17009KT 21/14 A2997 RMK A01 T02060144  RH  068%=      5-min Rain = 0
KMC1 170453Z 17011G17KT 21/14 A2997 RMK A01 T02070142  RH  066%=      5-min Rain = 0
KMC1 170454Z 15015G24KT 21/14 A2997 RMK A01 T02080140  RH  065%=      5-min Rain = 0
KMC1 170455Z 15014G22KT 21/14 A2997 RMK A01 T02100139  RH  064%=      5-min Rain = 0
KMC1 170456Z 17015G24KT 21/14 A2996 RMK A01 T02110140  RH  064%=      5-min Rain = 0
KMC1 170457Z 16014KT 21/14 A2996 RMK A01 T02100140  RH  064%=      5-min Rain = 0
KMC1 170458Z 15015G20KT 21/14 A2996 RMK A01 T02100139  RH  064%=      5-min Rain = 0
KMC1 170459Z 15011G16KT 21/14 A2996 RMK A01 T02100140  RH  064%=      5-min Rain = 0

Page generated in 0.0778 seconds.